<?xml version="1.0" encoding="UTF-8" standalone="no" ?>
<gpx xmlns="http://www.topografix.com/GPX/1/1" xmlns:xsi="http://www.w3.org/2001/XMLSchema-instance" xsi:schemaLocation="http://www.topografix.com/GPX/1/1 http://www.topografix.com/GPX/1/1/gpx.xsd" version="1.1" creator="VisuGPX - https://www.visugpx.com">
  <metadata>
    <name>Autour de Murles</name>
    <desc><![CDATA[En suivant par moments le PR de Murles, une variante un peu plus longue (10 km de plus que le PR) à faire à VTT avec un beau niveau technique, ou alors en trail running.
N\'hésitez pas à faire un détour par la bergerie des Tribes (derrières Saint Gély, cf carte IGN) et passez à Caravette en respectant les résidants, qui, soit dit en passant, produise un bon vin...]]></desc>
  </metadata>
  <trk>
    <name><![CDATA[murles pr vtt]]></name>
    <trkseg>
      <trkpt lat="43.69068" lon="3.74592">
        <ele>193</ele>
        <time>2007-05-21T06:00:00Z</time>
      </trkpt>
      <trkpt lat="43.69072" lon="3.74609">
        <ele>193</ele>
        <time>2007-05-21T06:00:05Z</time>
      </trkpt>
      <trkpt lat="43.69087" lon="3.74691">
        <ele>193</ele>
        <time>2007-05-21T06:00:30Z</time>
      </trkpt>
      <trkpt lat="43.69099" lon="3.7472">
        <ele>189</ele>
        <time>2007-05-21T06:00:40Z</time>
      </trkpt>
      <trkpt lat="43.69109" lon="3.74743">
        <ele>189</ele>
        <time>2007-05-21T06:00:47Z</time>
      </trkpt>
      <trkpt lat="43.69119" lon="3.74764">
        <ele>189</ele>
        <time>2007-05-21T06:00:54Z</time>
      </trkpt>
      <trkpt lat="43.69148" lon="3.74792">
        <ele>209</ele>
        <time>2007-05-21T06:01:09Z</time>
      </trkpt>
      <trkpt lat="43.69163" lon="3.7481">
        <ele>200</ele>
        <time>2007-05-21T06:01:17Z</time>
      </trkpt>
      <trkpt lat="43.69179" lon="3.7483">
        <ele>200</ele>
        <time>2007-05-21T06:01:25Z</time>
      </trkpt>
      <trkpt lat="43.69188" lon="3.74853">
        <ele>200</ele>
        <time>2007-05-21T06:01:33Z</time>
      </trkpt>
      <trkpt lat="43.69187" lon="3.74909">
        <ele>194</ele>
        <time>2007-05-21T06:01:49Z</time>
      </trkpt>
      <trkpt lat="43.69191" lon="3.74934">
        <ele>194</ele>
        <time>2007-05-21T06:01:57Z</time>
      </trkpt>
      <trkpt lat="43.69205" lon="3.74959">
        <ele>194</ele>
        <time>2007-05-21T06:02:06Z</time>
      </trkpt>
      <trkpt lat="43.69215" lon="3.7498">
        <ele>209</ele>
        <time>2007-05-21T06:02:13Z</time>
      </trkpt>
      <trkpt lat="43.69247" lon="3.75015">
        <ele>209</ele>
        <time>2007-05-21T06:02:29Z</time>
      </trkpt>
      <trkpt lat="43.69254" lon="3.75036">
        <ele>209</ele>
        <time>2007-05-21T06:02:36Z</time>
      </trkpt>
      <trkpt lat="43.69258" lon="3.7506">
        <ele>208</ele>
        <time>2007-05-21T06:02:43Z</time>
      </trkpt>
      <trkpt lat="43.69258" lon="3.75094">
        <ele>208</ele>
        <time>2007-05-21T06:02:53Z</time>
      </trkpt>
      <trkpt lat="43.69269" lon="3.75117">
        <ele>208</ele>
        <time>2007-05-21T06:03:02Z</time>
      </trkpt>
      <trkpt lat="43.69276" lon="3.75125">
        <ele>208</ele>
        <time>2007-05-21T06:03:05Z</time>
      </trkpt>
      <trkpt lat="43.69284" lon="3.75136">
        <ele>217</ele>
        <time>2007-05-21T06:03:10Z</time>
      </trkpt>
      <trkpt lat="43.69292" lon="3.75147">
        <ele>217</ele>
        <time>2007-05-21T06:03:14Z</time>
      </trkpt>
      <trkpt lat="43.69306" lon="3.75169">
        <ele>222</ele>
        <time>2007-05-21T06:03:23Z</time>
      </trkpt>
      <trkpt lat="43.69312" lon="3.75179">
        <ele>222</ele>
        <time>2007-05-21T06:03:26Z</time>
      </trkpt>
      <trkpt lat="43.69318" lon="3.75192">
        <ele>222</ele>
        <time>2007-05-21T06:03:31Z</time>
      </trkpt>
      <trkpt lat="43.69324" lon="3.75207">
        <ele>222</ele>
        <time>2007-05-21T06:03:36Z</time>
      </trkpt>
      <trkpt lat="43.69335" lon="3.75244">
        <ele>226</ele>
        <time>2007-05-21T06:03:48Z</time>
      </trkpt>
      <trkpt lat="43.69341" lon="3.75264">
        <ele>226</ele>
        <time>2007-05-21T06:03:54Z</time>
      </trkpt>
      <trkpt lat="43.69349" lon="3.75284">
        <ele>226</ele>
        <time>2007-05-21T06:04:00Z</time>
      </trkpt>
      <trkpt lat="43.69361" lon="3.75289">
        <ele>226</ele>
        <time>2007-05-21T06:04:05Z</time>
      </trkpt>
      <trkpt lat="43.69392" lon="3.75287">
        <ele>228</ele>
        <time>2007-05-21T06:04:18Z</time>
      </trkpt>
      <trkpt lat="43.69406" lon="3.75283">
        <ele>228</ele>
        <time>2007-05-21T06:04:24Z</time>
      </trkpt>
      <trkpt lat="43.6942" lon="3.75282">
        <ele>228</ele>
        <time>2007-05-21T06:04:29Z</time>
      </trkpt>
      <trkpt lat="43.69442" lon="3.75279">
        <ele>228</ele>
        <time>2007-05-21T06:04:38Z</time>
      </trkpt>
      <trkpt lat="43.69477" lon="3.75274">
        <ele>227</ele>
        <time>2007-05-21T06:04:52Z</time>
      </trkpt>
      <trkpt lat="43.69492" lon="3.75268">
        <ele>227</ele>
        <time>2007-05-21T06:04:58Z</time>
      </trkpt>
      <trkpt lat="43.69513" lon="3.75261">
        <ele>227</ele>
        <time>2007-05-21T06:05:07Z</time>
      </trkpt>
      <trkpt lat="43.69529" lon="3.75262">
        <ele>227</ele>
        <time>2007-05-21T06:05:14Z</time>
      </trkpt>
      <trkpt lat="43.69547" lon="3.7526">
        <ele>225</ele>
        <time>2007-05-21T06:05:21Z</time>
      </trkpt>
      <trkpt lat="43.69559" lon="3.75255">
        <ele>225</ele>
        <time>2007-05-21T06:05:26Z</time>
      </trkpt>
      <trkpt lat="43.69572" lon="3.75252">
        <ele>225</ele>
        <time>2007-05-21T06:05:31Z</time>
      </trkpt>
      <trkpt lat="43.69597" lon="3.75248">
        <ele>225</ele>
        <time>2007-05-21T06:05:41Z</time>
      </trkpt>
      <trkpt lat="43.69627" lon="3.75242">
        <ele>225</ele>
        <time>2007-05-21T06:05:54Z</time>
      </trkpt>
      <trkpt lat="43.69646" lon="3.75238">
        <ele>226</ele>
        <time>2007-05-21T06:06:01Z</time>
      </trkpt>
      <trkpt lat="43.69663" lon="3.75238">
        <ele>226</ele>
        <time>2007-05-21T06:06:08Z</time>
      </trkpt>
      <trkpt lat="43.69684" lon="3.75245">
        <ele>226</ele>
        <time>2007-05-21T06:06:17Z</time>
      </trkpt>
      <trkpt lat="43.69727" lon="3.75245">
        <ele>226</ele>
        <time>2007-05-21T06:06:34Z</time>
      </trkpt>
      <trkpt lat="43.69741" lon="3.75247">
        <ele>226</ele>
        <time>2007-05-21T06:06:40Z</time>
      </trkpt>
      <trkpt lat="43.69757" lon="3.75252">
        <ele>226</ele>
        <time>2007-05-21T06:06:46Z</time>
      </trkpt>
      <trkpt lat="43.6977" lon="3.75254">
        <ele>226</ele>
        <time>2007-05-21T06:06:51Z</time>
      </trkpt>
      <trkpt lat="43.69786" lon="3.75252">
        <ele>226</ele>
        <time>2007-05-21T06:06:58Z</time>
      </trkpt>
      <trkpt lat="43.69797" lon="3.75248">
        <ele>226</ele>
        <time>2007-05-21T06:07:02Z</time>
      </trkpt>
      <trkpt lat="43.69806" lon="3.75246">
        <ele>227</ele>
        <time>2007-05-21T06:07:06Z</time>
      </trkpt>
      <trkpt lat="43.69823" lon="3.75246">
        <ele>227</ele>
        <time>2007-05-21T06:07:13Z</time>
      </trkpt>
      <trkpt lat="43.69837" lon="3.75243">
        <ele>227</ele>
        <time>2007-05-21T06:07:19Z</time>
      </trkpt>
      <trkpt lat="43.69853" lon="3.75243">
        <ele>227</ele>
        <time>2007-05-21T06:07:25Z</time>
      </trkpt>
      <trkpt lat="43.69875" lon="3.75243">
        <ele>227</ele>
        <time>2007-05-21T06:07:34Z</time>
      </trkpt>
      <trkpt lat="43.69875" lon="3.75243">
        <ele>227</ele>
        <time>2007-05-21T06:07:34Z</time>
      </trkpt>
      <trkpt lat="43.69913" lon="3.7525">
        <ele>226</ele>
        <time>2007-05-21T06:07:49Z</time>
      </trkpt>
      <trkpt lat="43.69934" lon="3.75247">
        <ele>226</ele>
        <time>2007-05-21T06:07:58Z</time>
      </trkpt>
      <trkpt lat="43.69953" lon="3.75248">
        <ele>226</ele>
        <time>2007-05-21T06:08:05Z</time>
      </trkpt>
      <trkpt lat="43.69975" lon="3.7525">
        <ele>226</ele>
        <time>2007-05-21T06:08:14Z</time>
      </trkpt>
      <trkpt lat="43.69994" lon="3.75253">
        <ele>226</ele>
        <time>2007-05-21T06:08:21Z</time>
      </trkpt>
      <trkpt lat="43.70009" lon="3.7526">
        <ele>226</ele>
        <time>2007-05-21T06:08:28Z</time>
      </trkpt>
      <trkpt lat="43.70033" lon="3.75279">
        <ele>226</ele>
        <time>2007-05-21T06:08:39Z</time>
      </trkpt>
      <trkpt lat="43.70056" lon="3.75296">
        <ele>230</ele>
        <time>2007-05-21T06:08:50Z</time>
      </trkpt>
      <trkpt lat="43.70088" lon="3.75309">
        <ele>231</ele>
        <time>2007-05-21T06:09:03Z</time>
      </trkpt>
      <trkpt lat="43.70108" lon="3.75318">
        <ele>231</ele>
        <time>2007-05-21T06:09:12Z</time>
      </trkpt>
      <trkpt lat="43.70124" lon="3.75327">
        <ele>231</ele>
        <time>2007-05-21T06:09:19Z</time>
      </trkpt>
      <trkpt lat="43.7014" lon="3.75336">
        <ele>231</ele>
        <time>2007-05-21T06:09:26Z</time>
      </trkpt>
      <trkpt lat="43.70169" lon="3.75359">
        <ele>231</ele>
        <time>2007-05-21T06:09:39Z</time>
      </trkpt>
      <trkpt lat="43.70171" lon="3.7536">
        <ele>231</ele>
        <time>2007-05-21T06:09:40Z</time>
      </trkpt>
      <trkpt lat="43.70172" lon="3.7536">
        <ele>231</ele>
        <time>2007-05-21T06:09:40Z</time>
      </trkpt>
      <trkpt lat="43.70177" lon="3.75361">
        <ele>231</ele>
        <time>2007-05-21T06:09:42Z</time>
      </trkpt>
      <trkpt lat="43.70195" lon="3.75388">
        <ele>233</ele>
        <time>2007-05-21T06:09:53Z</time>
      </trkpt>
      <trkpt lat="43.70213" lon="3.75417">
        <ele>235</ele>
        <time>2007-05-21T06:10:04Z</time>
      </trkpt>
      <trkpt lat="43.70225" lon="3.75436">
        <ele>235</ele>
        <time>2007-05-21T06:10:12Z</time>
      </trkpt>
      <trkpt lat="43.70239" lon="3.75464">
        <ele>235</ele>
        <time>2007-05-21T06:10:21Z</time>
      </trkpt>
      <trkpt lat="43.70261" lon="3.75508">
        <ele>237</ele>
        <time>2007-05-21T06:10:37Z</time>
      </trkpt>
      <trkpt lat="43.70269" lon="3.75533">
        <ele>237</ele>
        <time>2007-05-21T06:10:45Z</time>
      </trkpt>
      <trkpt lat="43.70278" lon="3.75548">
        <ele>237</ele>
        <time>2007-05-21T06:10:51Z</time>
      </trkpt>
      <trkpt lat="43.70291" lon="3.75566">
        <ele>243</ele>
        <time>2007-05-21T06:10:58Z</time>
      </trkpt>
      <trkpt lat="43.70313" lon="3.75584">
        <ele>241</ele>
        <time>2007-05-21T06:11:08Z</time>
      </trkpt>
      <trkpt lat="43.70329" lon="3.75596">
        <ele>241</ele>
        <time>2007-05-21T06:11:16Z</time>
      </trkpt>
      <trkpt lat="43.70343" lon="3.75607">
        <ele>241</ele>
        <time>2007-05-21T06:11:22Z</time>
      </trkpt>
      <trkpt lat="43.70362" lon="3.75617">
        <ele>241</ele>
        <time>2007-05-21T06:11:30Z</time>
      </trkpt>
      <trkpt lat="43.70389" lon="3.75639">
        <ele>246</ele>
        <time>2007-05-21T06:11:43Z</time>
      </trkpt>
      <trkpt lat="43.70403" lon="3.75653">
        <ele>246</ele>
        <time>2007-05-21T06:11:50Z</time>
      </trkpt>
      <trkpt lat="43.70412" lon="3.7567">
        <ele>246</ele>
        <time>2007-05-21T06:11:56Z</time>
      </trkpt>
      <trkpt lat="43.70419" lon="3.75689">
        <ele>246</ele>
        <time>2007-05-21T06:12:02Z</time>
      </trkpt>
      <trkpt lat="43.7044" lon="3.75726">
        <ele>250</ele>
        <time>2007-05-21T06:12:15Z</time>
      </trkpt>
      <trkpt lat="43.70454" lon="3.75744">
        <ele>250</ele>
        <time>2007-05-21T06:12:23Z</time>
      </trkpt>
      <trkpt lat="43.7047" lon="3.75753">
        <ele>252</ele>
        <time>2007-05-21T06:12:30Z</time>
      </trkpt>
      <trkpt lat="43.70486" lon="3.75761">
        <ele>252</ele>
        <time>2007-05-21T06:12:37Z</time>
      </trkpt>
      <trkpt lat="43.70512" lon="3.75781">
        <ele>252</ele>
        <time>2007-05-21T06:12:49Z</time>
      </trkpt>
      <trkpt lat="43.70525" lon="3.75796">
        <ele>252</ele>
        <time>2007-05-21T06:12:55Z</time>
      </trkpt>
      <trkpt lat="43.70537" lon="3.75814">
        <ele>255</ele>
        <time>2007-05-21T06:13:03Z</time>
      </trkpt>
      <trkpt lat="43.7055" lon="3.75827">
        <ele>255</ele>
        <time>2007-05-21T06:13:09Z</time>
      </trkpt>
      <trkpt lat="43.70569" lon="3.75863">
        <ele>255</ele>
        <time>2007-05-21T06:13:22Z</time>
      </trkpt>
      <trkpt lat="43.70578" lon="3.75893">
        <ele>256</ele>
        <time>2007-05-21T06:13:32Z</time>
      </trkpt>
      <trkpt lat="43.70591" lon="3.75918">
        <ele>256</ele>
        <time>2007-05-21T06:13:41Z</time>
      </trkpt>
      <trkpt lat="43.70599" lon="3.75951">
        <ele>256</ele>
        <time>2007-05-21T06:13:51Z</time>
      </trkpt>
      <trkpt lat="43.70615" lon="3.76024">
        <ele>257</ele>
        <time>2007-05-21T06:14:13Z</time>
      </trkpt>
      <trkpt lat="43.70616" lon="3.76049">
        <ele>259</ele>
        <time>2007-05-21T06:14:20Z</time>
      </trkpt>
      <trkpt lat="43.70624" lon="3.76083">
        <ele>259</ele>
        <time>2007-05-21T06:14:31Z</time>
      </trkpt>
      <trkpt lat="43.70629" lon="3.76107">
        <ele>256</ele>
        <time>2007-05-21T06:14:38Z</time>
      </trkpt>
      <trkpt lat="43.70634" lon="3.7615">
        <ele>259</ele>
        <time>2007-05-21T06:14:51Z</time>
      </trkpt>
      <trkpt lat="43.70634" lon="3.7617">
        <ele>259</ele>
        <time>2007-05-21T06:14:56Z</time>
      </trkpt>
      <trkpt lat="43.70635" lon="3.76187">
        <ele>259</ele>
        <time>2007-05-21T06:15:01Z</time>
      </trkpt>
      <trkpt lat="43.70633" lon="3.76203">
        <ele>259</ele>
        <time>2007-05-21T06:15:06Z</time>
      </trkpt>
      <trkpt lat="43.70628" lon="3.76248">
        <ele>264</ele>
        <time>2007-05-21T06:15:19Z</time>
      </trkpt>
      <trkpt lat="43.70623" lon="3.76261">
        <ele>265</ele>
        <time>2007-05-21T06:15:24Z</time>
      </trkpt>
      <trkpt lat="43.70613" lon="3.76275">
        <ele>265</ele>
        <time>2007-05-21T06:15:29Z</time>
      </trkpt>
      <trkpt lat="43.70612" lon="3.76292">
        <ele>265</ele>
        <time>2007-05-21T06:15:34Z</time>
      </trkpt>
      <trkpt lat="43.7062" lon="3.76337">
        <ele>265</ele>
        <time>2007-05-21T06:15:48Z</time>
      </trkpt>
      <trkpt lat="43.70619" lon="3.76356">
        <ele>265</ele>
        <time>2007-05-21T06:15:53Z</time>
      </trkpt>
      <trkpt lat="43.70616" lon="3.76379">
        <ele>265</ele>
        <time>2007-05-21T06:16:00Z</time>
      </trkpt>
      <trkpt lat="43.70612" lon="3.76403">
        <ele>263</ele>
        <time>2007-05-21T06:16:07Z</time>
      </trkpt>
      <trkpt lat="43.70624" lon="3.76443">
        <ele>258</ele>
        <time>2007-05-21T06:16:20Z</time>
      </trkpt>
      <trkpt lat="43.70625" lon="3.76472">
        <ele>262</ele>
        <time>2007-05-21T06:16:28Z</time>
      </trkpt>
      <trkpt lat="43.70628" lon="3.76493">
        <ele>271</ele>
        <time>2007-05-21T06:16:35Z</time>
      </trkpt>
      <trkpt lat="43.70626" lon="3.76515">
        <ele>262</ele>
        <time>2007-05-21T06:16:41Z</time>
      </trkpt>
      <trkpt lat="43.70633" lon="3.76563">
        <ele>268</ele>
        <time>2007-05-21T06:16:55Z</time>
      </trkpt>
      <trkpt lat="43.70643" lon="3.7659">
        <ele>268</ele>
        <time>2007-05-21T06:17:04Z</time>
      </trkpt>
      <trkpt lat="43.70652" lon="3.76614">
        <ele>268</ele>
        <time>2007-05-21T06:17:12Z</time>
      </trkpt>
      <trkpt lat="43.70651" lon="3.76638">
        <ele>263</ele>
        <time>2007-05-21T06:17:19Z</time>
      </trkpt>
      <trkpt lat="43.70626" lon="3.76683">
        <ele>258</ele>
        <time>2007-05-21T06:17:35Z</time>
      </trkpt>
      <trkpt lat="43.70623" lon="3.76696">
        <ele>258</ele>
        <time>2007-05-21T06:17:39Z</time>
      </trkpt>
      <trkpt lat="43.70611" lon="3.76713">
        <ele>258</ele>
        <time>2007-05-21T06:17:46Z</time>
      </trkpt>
      <trkpt lat="43.70604" lon="3.76731">
        <ele>250</ele>
        <time>2007-05-21T06:17:52Z</time>
      </trkpt>
      <trkpt lat="43.70621" lon="3.76754">
        <ele>250</ele>
        <time>2007-05-21T06:18:01Z</time>
      </trkpt>
      <trkpt lat="43.70639" lon="3.76769">
        <ele>255</ele>
        <time>2007-05-21T06:18:10Z</time>
      </trkpt>
      <trkpt lat="43.7065" lon="3.76774">
        <ele>255</ele>
        <time>2007-05-21T06:18:15Z</time>
      </trkpt>
      <trkpt lat="43.70671" lon="3.76779">
        <ele>255</ele>
        <time>2007-05-21T06:18:23Z</time>
      </trkpt>
      <trkpt lat="43.70704" lon="3.76784">
        <ele>255</ele>
        <time>2007-05-21T06:18:36Z</time>
      </trkpt>
      <trkpt lat="43.70722" lon="3.76785">
        <ele>252</ele>
        <time>2007-05-21T06:18:44Z</time>
      </trkpt>
      <trkpt lat="43.7073" lon="3.76788">
        <ele>252</ele>
        <time>2007-05-21T06:18:47Z</time>
      </trkpt>
      <trkpt lat="43.70744" lon="3.76798">
        <ele>252</ele>
        <time>2007-05-21T06:18:53Z</time>
      </trkpt>
      <trkpt lat="43.70771" lon="3.7682">
        <ele>238</ele>
        <time>2007-05-21T06:19:06Z</time>
      </trkpt>
      <trkpt lat="43.70775" lon="3.76839">
        <ele>238</ele>
        <time>2007-05-21T06:19:11Z</time>
      </trkpt>
      <trkpt lat="43.70771" lon="3.7687">
        <ele>238</ele>
        <time>2007-05-21T06:19:20Z</time>
      </trkpt>
      <trkpt lat="43.70769" lon="3.76895">
        <ele>225</ele>
        <time>2007-05-21T06:19:27Z</time>
      </trkpt>
      <trkpt lat="43.70771" lon="3.76938">
        <ele>225</ele>
        <time>2007-05-21T06:19:40Z</time>
      </trkpt>
      <trkpt lat="43.70786" lon="3.76969">
        <ele>216</ele>
        <time>2007-05-21T06:19:51Z</time>
      </trkpt>
      <trkpt lat="43.70813" lon="3.76983">
        <ele>216</ele>
        <time>2007-05-21T06:20:03Z</time>
      </trkpt>
      <trkpt lat="43.7081" lon="3.7699">
        <ele>216</ele>
        <time>2007-05-21T06:20:05Z</time>
      </trkpt>
      <trkpt lat="43.70853" lon="3.76918">
        <ele>223</ele>
        <time>2007-05-21T06:20:32Z</time>
      </trkpt>
      <trkpt lat="43.70871" lon="3.76917">
        <ele>223</ele>
        <time>2007-05-21T06:20:39Z</time>
      </trkpt>
      <trkpt lat="43.70893" lon="3.76916">
        <ele>223</ele>
        <time>2007-05-21T06:20:48Z</time>
      </trkpt>
      <trkpt lat="43.70913" lon="3.76914">
        <ele>223</ele>
        <time>2007-05-21T06:20:56Z</time>
      </trkpt>
      <trkpt lat="43.70945" lon="3.76915">
        <ele>223</ele>
        <time>2007-05-21T06:21:09Z</time>
      </trkpt>
      <trkpt lat="43.70964" lon="3.76912">
        <ele>222</ele>
        <time>2007-05-21T06:21:17Z</time>
      </trkpt>
      <trkpt lat="43.70984" lon="3.76903">
        <ele>222</ele>
        <time>2007-05-21T06:21:25Z</time>
      </trkpt>
      <trkpt lat="43.71004" lon="3.76894">
        <ele>222</ele>
        <time>2007-05-21T06:21:33Z</time>
      </trkpt>
      <trkpt lat="43.71029" lon="3.76866">
        <ele>235</ele>
        <time>2007-05-21T06:21:46Z</time>
      </trkpt>
      <trkpt lat="43.7104" lon="3.76845">
        <ele>235</ele>
        <time>2007-05-21T06:21:54Z</time>
      </trkpt>
      <trkpt lat="43.71051" lon="3.7682">
        <ele>225</ele>
        <time>2007-05-21T06:22:03Z</time>
      </trkpt>
      <trkpt lat="43.71059" lon="3.76796">
        <ele>232</ele>
        <time>2007-05-21T06:22:10Z</time>
      </trkpt>
      <trkpt lat="43.71068" lon="3.76755">
        <ele>232</ele>
        <time>2007-05-21T06:22:22Z</time>
      </trkpt>
      <trkpt lat="43.7107" lon="3.76736">
        <ele>232</ele>
        <time>2007-05-21T06:22:28Z</time>
      </trkpt>
      <trkpt lat="43.71075" lon="3.76718">
        <ele>232</ele>
        <time>2007-05-21T06:22:34Z</time>
      </trkpt>
      <trkpt lat="43.7108" lon="3.76699">
        <ele>239</ele>
        <time>2007-05-21T06:22:40Z</time>
      </trkpt>
      <trkpt lat="43.71091" lon="3.76648">
        <ele>239</ele>
        <time>2007-05-21T06:22:55Z</time>
      </trkpt>
      <trkpt lat="43.71095" lon="3.76625">
        <ele>246</ele>
        <time>2007-05-21T06:23:02Z</time>
      </trkpt>
      <trkpt lat="43.71097" lon="3.76597">
        <ele>246</ele>
        <time>2007-05-21T06:23:10Z</time>
      </trkpt>
      <trkpt lat="43.71102" lon="3.76581">
        <ele>246</ele>
        <time>2007-05-21T06:23:15Z</time>
      </trkpt>
      <trkpt lat="43.71114" lon="3.76551">
        <ele>252</ele>
        <time>2007-05-21T06:23:25Z</time>
      </trkpt>
      <trkpt lat="43.71115" lon="3.76544">
        <ele>252</ele>
        <time>2007-05-21T06:23:27Z</time>
      </trkpt>
      <trkpt lat="43.71125" lon="3.76523">
        <ele>252</ele>
        <time>2007-05-21T06:23:34Z</time>
      </trkpt>
      <trkpt lat="43.7113" lon="3.76505">
        <ele>250</ele>
        <time>2007-05-21T06:23:40Z</time>
      </trkpt>
      <trkpt lat="43.71147" lon="3.76485">
        <ele>250</ele>
        <time>2007-05-21T06:23:49Z</time>
      </trkpt>
      <trkpt lat="43.71146" lon="3.76474">
        <ele>250</ele>
        <time>2007-05-21T06:23:52Z</time>
      </trkpt>
      <trkpt lat="43.71141" lon="3.76458">
        <ele>254</ele>
        <time>2007-05-21T06:23:57Z</time>
      </trkpt>
      <trkpt lat="43.71137" lon="3.76444">
        <ele>254</ele>
        <time>2007-05-21T06:24:01Z</time>
      </trkpt>
      <trkpt lat="43.71125" lon="3.76422">
        <ele>255</ele>
        <time>2007-05-21T06:24:10Z</time>
      </trkpt>
      <trkpt lat="43.71117" lon="3.76416">
        <ele>255</ele>
        <time>2007-05-21T06:24:14Z</time>
      </trkpt>
      <trkpt lat="43.7112" lon="3.7641">
        <ele>255</ele>
        <time>2007-05-21T06:24:16Z</time>
      </trkpt>
      <trkpt lat="43.71136" lon="3.76409">
        <ele>254</ele>
        <time>2007-05-21T06:24:22Z</time>
      </trkpt>
      <trkpt lat="43.7116" lon="3.76423">
        <ele>254</ele>
        <time>2007-05-21T06:24:33Z</time>
      </trkpt>
      <trkpt lat="43.71168" lon="3.7642">
        <ele>254</ele>
        <time>2007-05-21T06:24:36Z</time>
      </trkpt>
      <trkpt lat="43.71178" lon="3.7642">
        <ele>254</ele>
        <time>2007-05-21T06:24:40Z</time>
      </trkpt>
      <trkpt lat="43.71188" lon="3.76415">
        <ele>254</ele>
        <time>2007-05-21T06:24:45Z</time>
      </trkpt>
      <trkpt lat="43.71204" lon="3.76407">
        <ele>254</ele>
        <time>2007-05-21T06:24:51Z</time>
      </trkpt>
      <trkpt lat="43.7122" lon="3.76401">
        <ele>253</ele>
        <time>2007-05-21T06:24:58Z</time>
      </trkpt>
      <trkpt lat="43.71231" lon="3.7639">
        <ele>253</ele>
        <time>2007-05-21T06:25:03Z</time>
      </trkpt>
      <trkpt lat="43.7124" lon="3.7638">
        <ele>258</ele>
        <time>2007-05-21T06:25:08Z</time>
      </trkpt>
      <trkpt lat="43.71261" lon="3.76349">
        <ele>258</ele>
        <time>2007-05-21T06:25:21Z</time>
      </trkpt>
      <trkpt lat="43.71266" lon="3.76335">
        <ele>258</ele>
        <time>2007-05-21T06:25:25Z</time>
      </trkpt>
      <trkpt lat="43.71272" lon="3.76323">
        <ele>258</ele>
        <time>2007-05-21T06:25:29Z</time>
      </trkpt>
      <trkpt lat="43.71279" lon="3.76303">
        <ele>263</ele>
        <time>2007-05-21T06:25:36Z</time>
      </trkpt>
      <trkpt lat="43.71285" lon="3.76282">
        <ele>263</ele>
        <time>2007-05-21T06:25:42Z</time>
      </trkpt>
      <trkpt lat="43.7129" lon="3.76269">
        <ele>263</ele>
        <time>2007-05-21T06:25:46Z</time>
      </trkpt>
      <trkpt lat="43.71299" lon="3.76256">
        <ele>261</ele>
        <time>2007-05-21T06:25:52Z</time>
      </trkpt>
      <trkpt lat="43.7131" lon="3.76242">
        <ele>261</ele>
        <time>2007-05-21T06:25:58Z</time>
      </trkpt>
      <trkpt lat="43.71328" lon="3.76208">
        <ele>265</ele>
        <time>2007-05-21T06:26:10Z</time>
      </trkpt>
      <trkpt lat="43.71335" lon="3.76192">
        <ele>265</ele>
        <time>2007-05-21T06:26:15Z</time>
      </trkpt>
      <trkpt lat="43.71336" lon="3.76175">
        <ele>265</ele>
        <time>2007-05-21T06:26:20Z</time>
      </trkpt>
      <trkpt lat="43.71342" lon="3.76159">
        <ele>265</ele>
        <time>2007-05-21T06:26:25Z</time>
      </trkpt>
      <trkpt lat="43.71359" lon="3.76135">
        <ele>265</ele>
        <time>2007-05-21T06:26:35Z</time>
      </trkpt>
      <trkpt lat="43.71371" lon="3.76123">
        <ele>266</ele>
        <time>2007-05-21T06:26:41Z</time>
      </trkpt>
      <trkpt lat="43.71384" lon="3.76111">
        <ele>265</ele>
        <time>2007-05-21T06:26:47Z</time>
      </trkpt>
      <trkpt lat="43.71396" lon="3.76103">
        <ele>265</ele>
        <time>2007-05-21T06:26:53Z</time>
      </trkpt>
      <trkpt lat="43.7142" lon="3.76094">
        <ele>265</ele>
        <time>2007-05-21T06:27:03Z</time>
      </trkpt>
      <trkpt lat="43.71433" lon="3.76082">
        <ele>265</ele>
        <time>2007-05-21T06:27:09Z</time>
      </trkpt>
      <trkpt lat="43.71444" lon="3.76074">
        <ele>265</ele>
        <time>2007-05-21T06:27:14Z</time>
      </trkpt>
      <trkpt lat="43.71458" lon="3.76064">
        <ele>265</ele>
        <time>2007-05-21T06:27:21Z</time>
      </trkpt>
      <trkpt lat="43.71485" lon="3.76042">
        <ele>262</ele>
        <time>2007-05-21T06:27:33Z</time>
      </trkpt>
      <trkpt lat="43.715" lon="3.7603">
        <ele>262</ele>
        <time>2007-05-21T06:27:40Z</time>
      </trkpt>
      <trkpt lat="43.71516" lon="3.76017">
        <ele>262</ele>
        <time>2007-05-21T06:27:47Z</time>
      </trkpt>
      <trkpt lat="43.71527" lon="3.76011">
        <ele>262</ele>
        <time>2007-05-21T06:27:52Z</time>
      </trkpt>
      <trkpt lat="43.71557" lon="3.75978">
        <ele>263</ele>
        <time>2007-05-21T06:28:07Z</time>
      </trkpt>
      <trkpt lat="43.71562" lon="3.75964">
        <ele>263</ele>
        <time>2007-05-21T06:28:12Z</time>
      </trkpt>
      <trkpt lat="43.71564" lon="3.75951">
        <ele>264</ele>
        <time>2007-05-21T06:28:16Z</time>
      </trkpt>
      <trkpt lat="43.71565" lon="3.75937">
        <ele>264</ele>
        <time>2007-05-21T06:28:20Z</time>
      </trkpt>
      <trkpt lat="43.71566" lon="3.75897">
        <ele>264</ele>
        <time>2007-05-21T06:28:31Z</time>
      </trkpt>
      <trkpt lat="43.71565" lon="3.75873">
        <ele>262</ele>
        <time>2007-05-21T06:28:38Z</time>
      </trkpt>
      <trkpt lat="43.71564" lon="3.75859">
        <ele>262</ele>
        <time>2007-05-21T06:28:43Z</time>
      </trkpt>
      <trkpt lat="43.71563" lon="3.75841">
        <ele>262</ele>
        <time>2007-05-21T06:28:48Z</time>
      </trkpt>
      <trkpt lat="43.71561" lon="3.75819">
        <ele>262</ele>
        <time>2007-05-21T06:28:54Z</time>
      </trkpt>
      <trkpt lat="43.71561" lon="3.75818">
        <ele>262</ele>
        <time>2007-05-21T06:28:54Z</time>
      </trkpt>
      <trkpt lat="43.71561" lon="3.75817">
        <ele>262</ele>
        <time>2007-05-21T06:28:55Z</time>
      </trkpt>
      <trkpt lat="43.71559" lon="3.75807">
        <ele>262</ele>
        <time>2007-05-21T06:28:58Z</time>
      </trkpt>
      <trkpt lat="43.71552" lon="3.75766">
        <ele>263</ele>
        <time>2007-05-21T06:29:10Z</time>
      </trkpt>
      <trkpt lat="43.71552" lon="3.75746">
        <ele>263</ele>
        <time>2007-05-21T06:29:16Z</time>
      </trkpt>
      <trkpt lat="43.71552" lon="3.7572">
        <ele>263</ele>
        <time>2007-05-21T06:29:23Z</time>
      </trkpt>
      <trkpt lat="43.71552" lon="3.75695">
        <ele>262</ele>
        <time>2007-05-21T06:29:30Z</time>
      </trkpt>
      <trkpt lat="43.71551" lon="3.75673">
        <ele>262</ele>
        <time>2007-05-21T06:29:37Z</time>
      </trkpt>
      <trkpt lat="43.7155" lon="3.75665">
        <ele>262</ele>
        <time>2007-05-21T06:29:39Z</time>
      </trkpt>
      <trkpt lat="43.71546" lon="3.75641">
        <ele>262</ele>
        <time>2007-05-21T06:29:46Z</time>
      </trkpt>
      <trkpt lat="43.71541" lon="3.75622">
        <ele>257</ele>
        <time>2007-05-21T06:29:52Z</time>
      </trkpt>
      <trkpt lat="43.71534" lon="3.75585">
        <ele>257</ele>
        <time>2007-05-21T06:30:03Z</time>
      </trkpt>
      <trkpt lat="43.71532" lon="3.75558">
        <ele>257</ele>
        <time>2007-05-21T06:30:11Z</time>
      </trkpt>
      <trkpt lat="43.71531" lon="3.75537">
        <ele>253</ele>
        <time>2007-05-21T06:30:17Z</time>
      </trkpt>
      <trkpt lat="43.71529" lon="3.75525">
        <ele>253</ele>
        <time>2007-05-21T06:30:21Z</time>
      </trkpt>
      <trkpt lat="43.71521" lon="3.7549">
        <ele>253</ele>
        <time>2007-05-21T06:30:32Z</time>
      </trkpt>
      <trkpt lat="43.71517" lon="3.75477">
        <ele>253</ele>
        <time>2007-05-21T06:30:36Z</time>
      </trkpt>
      <trkpt lat="43.71514" lon="3.75462">
        <ele>251</ele>
        <time>2007-05-21T06:30:40Z</time>
      </trkpt>
      <trkpt lat="43.71514" lon="3.75449">
        <ele>251</ele>
        <time>2007-05-21T06:30:44Z</time>
      </trkpt>
      <trkpt lat="43.71516" lon="3.75411">
        <ele>251</ele>
        <time>2007-05-21T06:30:55Z</time>
      </trkpt>
      <trkpt lat="43.71515" lon="3.75392">
        <ele>251</ele>
        <time>2007-05-21T06:31:00Z</time>
      </trkpt>
      <trkpt lat="43.71514" lon="3.75367">
        <ele>246</ele>
        <time>2007-05-21T06:31:08Z</time>
      </trkpt>
      <trkpt lat="43.71499" lon="3.75333">
        <ele>246</ele>
        <time>2007-05-21T06:31:20Z</time>
      </trkpt>
      <trkpt lat="43.71481" lon="3.75319">
        <ele>246</ele>
        <time>2007-05-21T06:31:30Z</time>
      </trkpt>
      <trkpt lat="43.71482" lon="3.75321">
        <ele>246</ele>
        <time>2007-05-21T06:31:31Z</time>
      </trkpt>
      <trkpt lat="43.7148" lon="3.75319">
        <ele>246</ele>
        <time>2007-05-21T06:31:33Z</time>
      </trkpt>
      <trkpt lat="43.71464" lon="3.75328">
        <ele>246</ele>
        <time>2007-05-21T06:31:39Z</time>
      </trkpt>
      <trkpt lat="43.7141" lon="3.75334">
        <ele>244</ele>
        <time>2007-05-21T06:32:01Z</time>
      </trkpt>
      <trkpt lat="43.71381" lon="3.75331">
        <ele>244</ele>
        <time>2007-05-21T06:32:13Z</time>
      </trkpt>
      <trkpt lat="43.71356" lon="3.75347">
        <ele>240</ele>
        <time>2007-05-21T06:32:25Z</time>
      </trkpt>
      <trkpt lat="43.71345" lon="3.75375">
        <ele>240</ele>
        <time>2007-05-21T06:32:34Z</time>
      </trkpt>
      <trkpt lat="43.71329" lon="3.75426">
        <ele>238</ele>
        <time>2007-05-21T06:32:50Z</time>
      </trkpt>
      <trkpt lat="43.71324" lon="3.75448">
        <ele>238</ele>
        <time>2007-05-21T06:32:57Z</time>
      </trkpt>
      <trkpt lat="43.71302" lon="3.75439">
        <ele>238</ele>
        <time>2007-05-21T06:33:07Z</time>
      </trkpt>
      <trkpt lat="43.71288" lon="3.75406">
        <ele>234</ele>
        <time>2007-05-21T06:33:18Z</time>
      </trkpt>
      <trkpt lat="43.71251" lon="3.75386">
        <ele>235</ele>
        <time>2007-05-21T06:33:35Z</time>
      </trkpt>
      <trkpt lat="43.71239" lon="3.75392">
        <ele>234</ele>
        <time>2007-05-21T06:33:40Z</time>
      </trkpt>
      <trkpt lat="43.71217" lon="3.75398">
        <ele>234</ele>
        <time>2007-05-21T06:33:49Z</time>
      </trkpt>
      <trkpt lat="43.71189" lon="3.75388">
        <ele>232</ele>
        <time>2007-05-21T06:34:01Z</time>
      </trkpt>
      <trkpt lat="43.71144" lon="3.75366">
        <ele>232</ele>
        <time>2007-05-21T06:34:20Z</time>
      </trkpt>
      <trkpt lat="43.71115" lon="3.75355">
        <ele>224</ele>
        <time>2007-05-21T06:34:33Z</time>
      </trkpt>
      <trkpt lat="43.71093" lon="3.75342">
        <ele>229</ele>
        <time>2007-05-21T06:34:43Z</time>
      </trkpt>
      <trkpt lat="43.71075" lon="3.75327">
        <ele>229</ele>
        <time>2007-05-21T06:34:51Z</time>
      </trkpt>
      <trkpt lat="43.71026" lon="3.75288">
        <ele>224</ele>
        <time>2007-05-21T06:35:14Z</time>
      </trkpt>
      <trkpt lat="43.71006" lon="3.75261">
        <ele>224</ele>
        <time>2007-05-21T06:35:25Z</time>
      </trkpt>
      <trkpt lat="43.70981" lon="3.75225">
        <ele>224</ele>
        <time>2007-05-21T06:35:40Z</time>
      </trkpt>
      <trkpt lat="43.70959" lon="3.75189">
        <ele>221</ele>
        <time>2007-05-21T06:35:53Z</time>
      </trkpt>
      <trkpt lat="43.70904" lon="3.75112">
        <ele>222</ele>
        <time>2007-05-21T06:36:26Z</time>
      </trkpt>
      <trkpt lat="43.70881" lon="3.75079">
        <ele>222</ele>
        <time>2007-05-21T06:36:39Z</time>
      </trkpt>
      <trkpt lat="43.70852" lon="3.75021">
        <ele>218</ele>
        <time>2007-05-21T06:36:59Z</time>
      </trkpt>
      <trkpt lat="43.70837" lon="3.7497">
        <ele>218</ele>
        <time>2007-05-21T06:37:16Z</time>
      </trkpt>
      <trkpt lat="43.70827" lon="3.74869">
        <ele>218</ele>
        <time>2007-05-21T06:37:45Z</time>
      </trkpt>
      <trkpt lat="43.70832" lon="3.74826">
        <ele>218</ele>
        <time>2007-05-21T06:37:58Z</time>
      </trkpt>
      <trkpt lat="43.70818" lon="3.74818">
        <ele>218</ele>
        <time>2007-05-21T06:38:05Z</time>
      </trkpt>
      <trkpt lat="43.708" lon="3.74812">
        <ele>218</ele>
        <time>2007-05-21T06:38:12Z</time>
      </trkpt>
      <trkpt lat="43.70749" lon="3.74776">
        <ele>220</ele>
        <time>2007-05-21T06:38:35Z</time>
      </trkpt>
      <trkpt lat="43.70726" lon="3.74762">
        <ele>220</ele>
        <time>2007-05-21T06:38:45Z</time>
      </trkpt>
      <trkpt lat="43.70707" lon="3.74746">
        <ele>229</ele>
        <time>2007-05-21T06:38:54Z</time>
      </trkpt>
      <trkpt lat="43.70696" lon="3.74729">
        <ele>229</ele>
        <time>2007-05-21T06:39:00Z</time>
      </trkpt>
      <trkpt lat="43.70651" lon="3.74711">
        <ele>230</ele>
        <time>2007-05-21T06:39:19Z</time>
      </trkpt>
      <trkpt lat="43.70631" lon="3.74706">
        <ele>230</ele>
        <time>2007-05-21T06:39:28Z</time>
      </trkpt>
      <trkpt lat="43.70622" lon="3.74704">
        <ele>238</ele>
        <time>2007-05-21T06:39:31Z</time>
      </trkpt>
      <trkpt lat="43.70616" lon="3.74699">
        <ele>238</ele>
        <time>2007-05-21T06:39:34Z</time>
      </trkpt>
      <trkpt lat="43.706" lon="3.74694">
        <ele>238</ele>
        <time>2007-05-21T06:39:41Z</time>
      </trkpt>
      <trkpt lat="43.70581" lon="3.74695">
        <ele>238</ele>
        <time>2007-05-21T06:39:48Z</time>
      </trkpt>
      <trkpt lat="43.70568" lon="3.74675">
        <ele>238</ele>
        <time>2007-05-21T06:39:56Z</time>
      </trkpt>
      <trkpt lat="43.70553" lon="3.74659">
        <ele>238</ele>
        <time>2007-05-21T06:40:04Z</time>
      </trkpt>
      <trkpt lat="43.70522" lon="3.74603">
        <ele>240</ele>
        <time>2007-05-21T06:40:24Z</time>
      </trkpt>
      <trkpt lat="43.70494" lon="3.74574">
        <ele>240</ele>
        <time>2007-05-21T06:40:39Z</time>
      </trkpt>
      <trkpt lat="43.70482" lon="3.74565">
        <ele>240</ele>
        <time>2007-05-21T06:40:45Z</time>
      </trkpt>
      <trkpt lat="43.70456" lon="3.74523">
        <ele>236</ele>
        <time>2007-05-21T06:41:01Z</time>
      </trkpt>
      <trkpt lat="43.70426" lon="3.74445">
        <ele>232</ele>
        <time>2007-05-21T06:41:27Z</time>
      </trkpt>
      <trkpt lat="43.70398" lon="3.74404">
        <ele>232</ele>
        <time>2007-05-21T06:41:43Z</time>
      </trkpt>
      <trkpt lat="43.70367" lon="3.74372">
        <ele>223</ele>
        <time>2007-05-21T06:41:58Z</time>
      </trkpt>
      <trkpt lat="43.70333" lon="3.74349">
        <ele>223</ele>
        <time>2007-05-21T06:42:14Z</time>
      </trkpt>
      <trkpt lat="43.70256" lon="3.74307">
        <ele>214</ele>
        <time>2007-05-21T06:42:47Z</time>
      </trkpt>
      <trkpt lat="43.70219" lon="3.74282">
        <ele>213</ele>
        <time>2007-05-21T06:43:03Z</time>
      </trkpt>
      <trkpt lat="43.70165" lon="3.74263">
        <ele>209</ele>
        <time>2007-05-21T06:43:26Z</time>
      </trkpt>
      <trkpt lat="43.70082" lon="3.74234">
        <ele>213</ele>
        <time>2007-05-21T06:44:00Z</time>
      </trkpt>
      <trkpt lat="43.69999" lon="3.74207">
        <ele>209</ele>
        <time>2007-05-21T06:44:34Z</time>
      </trkpt>
      <trkpt lat="43.69971" lon="3.74196">
        <ele>209</ele>
        <time>2007-05-21T06:44:46Z</time>
      </trkpt>
      <trkpt lat="43.69956" lon="3.74184">
        <ele>209</ele>
        <time>2007-05-21T06:44:54Z</time>
      </trkpt>
      <trkpt lat="43.69899" lon="3.74183">
        <ele>209</ele>
        <time>2007-05-21T06:45:17Z</time>
      </trkpt>
      <trkpt lat="43.6982" lon="3.74161">
        <ele>212</ele>
        <time>2007-05-21T06:45:50Z</time>
      </trkpt>
      <trkpt lat="43.69823" lon="3.74108">
        <ele>212</ele>
        <time>2007-05-21T06:46:05Z</time>
      </trkpt>
      <trkpt lat="43.6983" lon="3.74044">
        <ele>219</ele>
        <time>2007-05-21T06:46:24Z</time>
      </trkpt>
      <trkpt lat="43.69829" lon="3.73996">
        <ele>219</ele>
        <time>2007-05-21T06:46:38Z</time>
      </trkpt>
      <trkpt lat="43.69753" lon="3.73975">
        <ele>217</ele>
        <time>2007-05-21T06:47:10Z</time>
      </trkpt>
      <trkpt lat="43.69706" lon="3.73957">
        <ele>223</ele>
        <time>2007-05-21T06:47:29Z</time>
      </trkpt>
      <trkpt lat="43.6967" lon="3.73928">
        <ele>223</ele>
        <time>2007-05-21T06:47:46Z</time>
      </trkpt>
      <trkpt lat="43.69636" lon="3.73901">
        <ele>223</ele>
        <time>2007-05-21T06:48:01Z</time>
      </trkpt>
      <trkpt lat="43.69663" lon="3.73895">
        <ele>223</ele>
        <time>2007-05-21T06:48:18Z</time>
      </trkpt>
      <trkpt lat="43.69703" lon="3.73919">
        <ele>223</ele>
        <time>2007-05-21T06:48:36Z</time>
      </trkpt>
      <trkpt lat="43.69746" lon="3.7393">
        <ele>231</ele>
        <time>2007-05-21T06:48:53Z</time>
      </trkpt>
      <trkpt lat="43.6979" lon="3.7392">
        <ele>231</ele>
        <time>2007-05-21T06:49:11Z</time>
      </trkpt>
      <trkpt lat="43.69794" lon="3.73832">
        <ele>232</ele>
        <time>2007-05-21T06:49:38Z</time>
      </trkpt>
      <trkpt lat="43.698" lon="3.73785">
        <ele>241</ele>
        <time>2007-05-21T06:49:52Z</time>
      </trkpt>
      <trkpt lat="43.698" lon="3.73781">
        <ele>241</ele>
        <time>2007-05-21T06:49:53Z</time>
      </trkpt>
      <trkpt lat="43.69798" lon="3.73779">
        <ele>241</ele>
        <time>2007-05-21T06:49:54Z</time>
      </trkpt>
      <trkpt lat="43.69784" lon="3.73753">
        <ele>234</ele>
        <time>2007-05-21T06:50:04Z</time>
      </trkpt>
      <trkpt lat="43.69764" lon="3.73727">
        <ele>234</ele>
        <time>2007-05-21T06:50:15Z</time>
      </trkpt>
      <trkpt lat="43.69751" lon="3.73703">
        <ele>236</ele>
        <time>2007-05-21T06:50:24Z</time>
      </trkpt>
      <trkpt lat="43.69725" lon="3.73657">
        <ele>236</ele>
        <time>2007-05-21T06:50:41Z</time>
      </trkpt>
      <trkpt lat="43.69667" lon="3.73583">
        <ele>231</ele>
        <time>2007-05-21T06:51:13Z</time>
      </trkpt>
      <trkpt lat="43.69638" lon="3.73549">
        <ele>235</ele>
        <time>2007-05-21T06:51:28Z</time>
      </trkpt>
      <trkpt lat="43.6961" lon="3.73525">
        <ele>227</ele>
        <time>2007-05-21T06:51:41Z</time>
      </trkpt>
      <trkpt lat="43.6956" lon="3.73511">
        <ele>227</ele>
        <time>2007-05-21T06:52:02Z</time>
      </trkpt>
      <trkpt lat="43.69508" lon="3.73522">
        <ele>218</ele>
        <time>2007-05-21T06:52:23Z</time>
      </trkpt>
      <trkpt lat="43.6949" lon="3.73525">
        <ele>218</ele>
        <time>2007-05-21T06:52:30Z</time>
      </trkpt>
      <trkpt lat="43.69439" lon="3.73514">
        <ele>208</ele>
        <time>2007-05-21T06:52:51Z</time>
      </trkpt>
      <trkpt lat="43.69406" lon="3.73509">
        <ele>208</ele>
        <time>2007-05-21T06:53:04Z</time>
      </trkpt>
      <trkpt lat="43.69381" lon="3.7342">
        <ele>208</ele>
        <time>2007-05-21T06:53:33Z</time>
      </trkpt>
      <trkpt lat="43.69385" lon="3.73391">
        <ele>208</ele>
        <time>2007-05-21T06:53:42Z</time>
      </trkpt>
      <trkpt lat="43.69396" lon="3.73386">
        <ele>206</ele>
        <time>2007-05-21T06:53:47Z</time>
      </trkpt>
      <trkpt lat="43.69396" lon="3.73385">
        <ele>206</ele>
        <time>2007-05-21T06:53:48Z</time>
      </trkpt>
      <trkpt lat="43.69397" lon="3.73387">
        <ele>208</ele>
        <time>2007-05-21T06:53:49Z</time>
      </trkpt>
      <trkpt lat="43.69397" lon="3.73388">
        <ele>208</ele>
        <time>2007-05-21T06:53:49Z</time>
      </trkpt>
      <trkpt lat="43.69398" lon="3.73388">
        <ele>208</ele>
        <time>2007-05-21T06:53:49Z</time>
      </trkpt>
      <trkpt lat="43.69397" lon="3.73386">
        <ele>206</ele>
        <time>2007-05-21T06:53:50Z</time>
      </trkpt>
      <trkpt lat="43.69396" lon="3.73384">
        <ele>206</ele>
        <time>2007-05-21T06:53:51Z</time>
      </trkpt>
      <trkpt lat="43.69396" lon="3.73384">
        <ele>206</ele>
        <time>2007-05-21T06:53:51Z</time>
      </trkpt>
      <trkpt lat="43.69396" lon="3.73384">
        <ele>206</ele>
        <time>2007-05-21T06:53:51Z</time>
      </trkpt>
      <trkpt lat="43.69397" lon="3.73384">
        <ele>206</ele>
        <time>2007-05-21T06:53:52Z</time>
      </trkpt>
      <trkpt lat="43.69396" lon="3.73382">
        <ele>206</ele>
        <time>2007-05-21T06:53:53Z</time>
      </trkpt>
      <trkpt lat="43.69396" lon="3.73383">
        <ele>206</ele>
        <time>2007-05-21T06:53:53Z</time>
      </trkpt>
      <trkpt lat="43.69395" lon="3.73382">
        <ele>206</ele>
        <time>2007-05-21T06:53:54Z</time>
      </trkpt>
      <trkpt lat="43.69395" lon="3.73381">
        <ele>206</ele>
        <time>2007-05-21T06:53:55Z</time>
      </trkpt>
      <trkpt lat="43.69395" lon="3.73384">
        <ele>206</ele>
        <time>2007-05-21T06:53:57Z</time>
      </trkpt>
      <trkpt lat="43.69396" lon="3.73385">
        <ele>206</ele>
        <time>2007-05-21T06:53:57Z</time>
      </trkpt>
      <trkpt lat="43.69396" lon="3.73385">
        <ele>206</ele>
        <time>2007-05-21T06:53:58Z</time>
      </trkpt>
      <trkpt lat="43.69396" lon="3.73385">
        <ele>206</ele>
        <time>2007-05-21T06:53:58Z</time>
      </trkpt>
      <trkpt lat="43.69397" lon="3.73384">
        <ele>206</ele>
        <time>2007-05-21T06:54:00Z</time>
      </trkpt>
      <trkpt lat="43.69397" lon="3.73384">
        <ele>206</ele>
        <time>2007-05-21T06:54:00Z</time>
      </trkpt>
      <trkpt lat="43.69397" lon="3.73383">
        <ele>206</ele>
        <time>2007-05-21T06:54:00Z</time>
      </trkpt>
      <trkpt lat="43.69397" lon="3.73384">
        <ele>206</ele>
        <time>2007-05-21T06:54:00Z</time>
      </trkpt>
      <trkpt lat="43.69396" lon="3.73382">
        <ele>206</ele>
        <time>2007-05-21T06:54:01Z</time>
      </trkpt>
      <trkpt lat="43.69398" lon="3.73385">
        <ele>206</ele>
        <time>2007-05-21T06:54:03Z</time>
      </trkpt>
      <trkpt lat="43.69398" lon="3.73384">
        <ele>206</ele>
        <time>2007-05-21T06:54:03Z</time>
      </trkpt>
      <trkpt lat="43.694" lon="3.73375">
        <ele>206</ele>
        <time>2007-05-21T06:54:06Z</time>
      </trkpt>
      <trkpt lat="43.6942" lon="3.73319">
        <ele>206</ele>
        <time>2007-05-21T06:54:26Z</time>
      </trkpt>
      <trkpt lat="43.69427" lon="3.7326">
        <ele>202</ele>
        <time>2007-05-21T06:54:43Z</time>
      </trkpt>
      <trkpt lat="43.69429" lon="3.73244">
        <ele>202</ele>
        <time>2007-05-21T06:54:48Z</time>
      </trkpt>
      <trkpt lat="43.69427" lon="3.73243">
        <ele>202</ele>
        <time>2007-05-21T06:54:49Z</time>
      </trkpt>
      <trkpt lat="43.69397" lon="3.73193">
        <ele>204</ele>
        <time>2007-05-21T06:55:08Z</time>
      </trkpt>
      <trkpt lat="43.69382" lon="3.73145">
        <ele>204</ele>
        <time>2007-05-21T06:55:23Z</time>
      </trkpt>
      <trkpt lat="43.69358" lon="3.73068">
        <ele>188</ele>
        <time>2007-05-21T06:55:47Z</time>
      </trkpt>
      <trkpt lat="43.69343" lon="3.72955">
        <ele>178</ele>
        <time>2007-05-21T06:56:21Z</time>
      </trkpt>
      <trkpt lat="43.6933" lon="3.72906">
        <ele>178</ele>
        <time>2007-05-21T06:56:37Z</time>
      </trkpt>
      <trkpt lat="43.69354" lon="3.72866">
        <ele>176</ele>
        <time>2007-05-21T06:56:53Z</time>
      </trkpt>
      <trkpt lat="43.69395" lon="3.72825">
        <ele>174</ele>
        <time>2007-05-21T06:57:13Z</time>
      </trkpt>
      <trkpt lat="43.69422" lon="3.72804">
        <ele>174</ele>
        <time>2007-05-21T06:57:26Z</time>
      </trkpt>
      <trkpt lat="43.69465" lon="3.72753">
        <ele>159</ele>
        <time>2007-05-21T06:57:49Z</time>
      </trkpt>
      <trkpt lat="43.69474" lon="3.72743">
        <ele>159</ele>
        <time>2007-05-21T06:57:53Z</time>
      </trkpt>
      <trkpt lat="43.695" lon="3.72725">
        <ele>159</ele>
        <time>2007-05-21T06:58:05Z</time>
      </trkpt>
      <trkpt lat="43.69517" lon="3.7271">
        <ele>160</ele>
        <time>2007-05-21T06:58:13Z</time>
      </trkpt>
      <trkpt lat="43.69556" lon="3.72677">
        <ele>142</ele>
        <time>2007-05-21T06:58:32Z</time>
      </trkpt>
      <trkpt lat="43.69586" lon="3.7266">
        <ele>142</ele>
        <time>2007-05-21T06:58:45Z</time>
      </trkpt>
      <trkpt lat="43.69609" lon="3.72654">
        <ele>142</ele>
        <time>2007-05-21T06:58:54Z</time>
      </trkpt>
      <trkpt lat="43.6966" lon="3.72642">
        <ele>145</ele>
        <time>2007-05-21T06:59:15Z</time>
      </trkpt>
      <trkpt lat="43.69728" lon="3.72638">
        <ele>146</ele>
        <time>2007-05-21T06:59:43Z</time>
      </trkpt>
      <trkpt lat="43.69761" lon="3.72626">
        <ele>147</ele>
        <time>2007-05-21T06:59:57Z</time>
      </trkpt>
      <trkpt lat="43.69791" lon="3.72612">
        <ele>147</ele>
        <time>2007-05-21T07:00:09Z</time>
      </trkpt>
      <trkpt lat="43.69815" lon="3.72585">
        <ele>150</ele>
        <time>2007-05-21T07:00:22Z</time>
      </trkpt>
      <trkpt lat="43.69838" lon="3.72505">
        <ele>147</ele>
        <time>2007-05-21T07:00:47Z</time>
      </trkpt>
      <trkpt lat="43.69857" lon="3.72478">
        <ele>147</ele>
        <time>2007-05-21T07:00:58Z</time>
      </trkpt>
      <trkpt lat="43.69883" lon="3.72447">
        <ele>148</ele>
        <time>2007-05-21T07:01:12Z</time>
      </trkpt>
      <trkpt lat="43.69903" lon="3.72417">
        <ele>148</ele>
        <time>2007-05-21T07:01:24Z</time>
      </trkpt>
      <trkpt lat="43.69939" lon="3.72365">
        <ele>152</ele>
        <time>2007-05-21T07:01:44Z</time>
      </trkpt>
      <trkpt lat="43.69958" lon="3.72345">
        <ele>152</ele>
        <time>2007-05-21T07:01:54Z</time>
      </trkpt>
      <trkpt lat="43.69985" lon="3.72347">
        <ele>147</ele>
        <time>2007-05-21T07:02:05Z</time>
      </trkpt>
      <trkpt lat="43.70023" lon="3.72377">
        <ele>147</ele>
        <time>2007-05-21T07:02:23Z</time>
      </trkpt>
      <trkpt lat="43.70077" lon="3.72455">
        <ele>150</ele>
        <time>2007-05-21T07:02:55Z</time>
      </trkpt>
      <trkpt lat="43.7011" lon="3.7247">
        <ele>162</ele>
        <time>2007-05-21T07:03:09Z</time>
      </trkpt>
      <trkpt lat="43.70149" lon="3.72473">
        <ele>159</ele>
        <time>2007-05-21T07:03:25Z</time>
      </trkpt>
      <trkpt lat="43.70175" lon="3.72464">
        <ele>152</ele>
        <time>2007-05-21T07:03:36Z</time>
      </trkpt>
      <trkpt lat="43.70232" lon="3.72412">
        <ele>153</ele>
        <time>2007-05-21T07:04:03Z</time>
      </trkpt>
      <trkpt lat="43.70267" lon="3.72387">
        <ele>153</ele>
        <time>2007-05-21T07:04:19Z</time>
      </trkpt>
      <trkpt lat="43.70293" lon="3.72363">
        <ele>154</ele>
        <time>2007-05-21T07:04:32Z</time>
      </trkpt>
      <trkpt lat="43.70295" lon="3.72332">
        <ele>154</ele>
        <time>2007-05-21T07:04:42Z</time>
      </trkpt>
      <trkpt lat="43.70264" lon="3.72245">
        <ele>156</ele>
        <time>2007-05-21T07:05:10Z</time>
      </trkpt>
      <trkpt lat="43.70243" lon="3.722">
        <ele>156</ele>
        <time>2007-05-21T07:05:25Z</time>
      </trkpt>
      <trkpt lat="43.70241" lon="3.72159">
        <ele>156</ele>
        <time>2007-05-21T07:05:38Z</time>
      </trkpt>
      <trkpt lat="43.70259" lon="3.72123">
        <ele>154</ele>
        <time>2007-05-21T07:05:51Z</time>
      </trkpt>
      <trkpt lat="43.70323" lon="3.72033">
        <ele>159</ele>
        <time>2007-05-21T07:06:28Z</time>
      </trkpt>
      <trkpt lat="43.70346" lon="3.72014">
        <ele>159</ele>
        <time>2007-05-21T07:06:39Z</time>
      </trkpt>
      <trkpt lat="43.7037" lon="3.71991">
        <ele>159</ele>
        <time>2007-05-21T07:06:50Z</time>
      </trkpt>
      <trkpt lat="43.70389" lon="3.71962">
        <ele>160</ele>
        <time>2007-05-21T07:07:02Z</time>
      </trkpt>
      <trkpt lat="43.70478" lon="3.71964">
        <ele>166</ele>
        <time>2007-05-21T07:07:39Z</time>
      </trkpt>
      <trkpt lat="43.70507" lon="3.71927">
        <ele>167</ele>
        <time>2007-05-21T07:07:55Z</time>
      </trkpt>
      <trkpt lat="43.70526" lon="3.71877">
        <ele>165</ele>
        <time>2007-05-21T07:08:11Z</time>
      </trkpt>
      <trkpt lat="43.7055" lon="3.71824">
        <ele>167</ele>
        <time>2007-05-21T07:08:30Z</time>
      </trkpt>
      <trkpt lat="43.7065" lon="3.71755">
        <ele>169</ele>
        <time>2007-05-21T07:09:15Z</time>
      </trkpt>
      <trkpt lat="43.70701" lon="3.71715">
        <ele>165</ele>
        <time>2007-05-21T07:09:39Z</time>
      </trkpt>
      <trkpt lat="43.70714" lon="3.71689">
        <ele>173</ele>
        <time>2007-05-21T07:09:49Z</time>
      </trkpt>
      <trkpt lat="43.70712" lon="3.71641">
        <ele>173</ele>
        <time>2007-05-21T07:10:03Z</time>
      </trkpt>
      <trkpt lat="43.70657" lon="3.71563">
        <ele>169</ele>
        <time>2007-05-21T07:10:35Z</time>
      </trkpt>
      <trkpt lat="43.70628" lon="3.71518">
        <ele>175</ele>
        <time>2007-05-21T07:10:52Z</time>
      </trkpt>
      <trkpt lat="43.70605" lon="3.71462">
        <ele>167</ele>
        <time>2007-05-21T07:11:11Z</time>
      </trkpt>
      <trkpt lat="43.70592" lon="3.71403">
        <ele>167</ele>
        <time>2007-05-21T07:11:29Z</time>
      </trkpt>
      <trkpt lat="43.70635" lon="3.71342">
        <ele>181</ele>
        <time>2007-05-21T07:11:55Z</time>
      </trkpt>
      <trkpt lat="43.70647" lon="3.71355">
        <ele>182</ele>
        <time>2007-05-21T07:12:01Z</time>
      </trkpt>
      <trkpt lat="43.70658" lon="3.71363">
        <ele>181</ele>
        <time>2007-05-21T07:12:06Z</time>
      </trkpt>
      <trkpt lat="43.70671" lon="3.71342">
        <ele>181</ele>
        <time>2007-05-21T07:12:14Z</time>
      </trkpt>
      <trkpt lat="43.70682" lon="3.71308">
        <ele>181</ele>
        <time>2007-05-21T07:12:25Z</time>
      </trkpt>
      <trkpt lat="43.70684" lon="3.71292">
        <ele>182</ele>
        <time>2007-05-21T07:12:30Z</time>
      </trkpt>
      <trkpt lat="43.70692" lon="3.71267">
        <ele>182</ele>
        <time>2007-05-21T07:12:38Z</time>
      </trkpt>
      <trkpt lat="43.70701" lon="3.71247">
        <ele>182</ele>
        <time>2007-05-21T07:12:45Z</time>
      </trkpt>
      <trkpt lat="43.70727" lon="3.71224">
        <ele>200</ele>
        <time>2007-05-21T07:12:57Z</time>
      </trkpt>
      <trkpt lat="43.70738" lon="3.71221">
        <ele>200</ele>
        <time>2007-05-21T07:13:02Z</time>
      </trkpt>
      <trkpt lat="43.70754" lon="3.71218">
        <ele>200</ele>
        <time>2007-05-21T07:13:08Z</time>
      </trkpt>
      <trkpt lat="43.70766" lon="3.71213">
        <ele>200</ele>
        <time>2007-05-21T07:13:13Z</time>
      </trkpt>
      <trkpt lat="43.70806" lon="3.7119">
        <ele>202</ele>
        <time>2007-05-21T07:13:31Z</time>
      </trkpt>
      <trkpt lat="43.70825" lon="3.71159">
        <ele>202</ele>
        <time>2007-05-21T07:13:43Z</time>
      </trkpt>
      <trkpt lat="43.70808" lon="3.71081">
        <ele>197</ele>
        <time>2007-05-21T07:14:07Z</time>
      </trkpt>
      <trkpt lat="43.70787" lon="3.71013">
        <ele>204</ele>
        <time>2007-05-21T07:14:28Z</time>
      </trkpt>
      <trkpt lat="43.70826" lon="3.70984">
        <ele>196</ele>
        <time>2007-05-21T07:14:48Z</time>
      </trkpt>
      <trkpt lat="43.70866" lon="3.70958">
        <ele>190</ele>
        <time>2007-05-21T07:15:06Z</time>
      </trkpt>
      <trkpt lat="43.70927" lon="3.70919">
        <ele>187</ele>
        <time>2007-05-21T07:15:33Z</time>
      </trkpt>
      <trkpt lat="43.7094" lon="3.7087">
        <ele>184</ele>
        <time>2007-05-21T07:15:48Z</time>
      </trkpt>
      <trkpt lat="43.70935" lon="3.7075">
        <ele>184</ele>
        <time>2007-05-21T07:16:26Z</time>
      </trkpt>
      <trkpt lat="43.70896" lon="3.70724">
        <ele>184</ele>
        <time>2007-05-21T07:16:44Z</time>
      </trkpt>
      <trkpt lat="43.709" lon="3.7073">
        <ele>184</ele>
        <time>2007-05-21T07:16:48Z</time>
      </trkpt>
      <trkpt lat="43.70904" lon="3.70743">
        <ele>184</ele>
        <time>2007-05-21T07:16:54Z</time>
      </trkpt>
      <trkpt lat="43.70849" lon="3.70757">
        <ele>184</ele>
        <time>2007-05-21T07:17:16Z</time>
      </trkpt>
      <trkpt lat="43.70804" lon="3.70767">
        <ele>184</ele>
        <time>2007-05-21T07:17:34Z</time>
      </trkpt>
      <trkpt lat="43.70755" lon="3.70753">
        <ele>182</ele>
        <time>2007-05-21T07:17:55Z</time>
      </trkpt>
      <trkpt lat="43.7071" lon="3.70741">
        <ele>182</ele>
        <time>2007-05-21T07:18:13Z</time>
      </trkpt>
      <trkpt lat="43.70638" lon="3.70716">
        <ele>181</ele>
        <time>2007-05-21T07:18:44Z</time>
      </trkpt>
      <trkpt lat="43.70628" lon="3.70677">
        <ele>181</ele>
        <time>2007-05-21T07:18:56Z</time>
      </trkpt>
      <trkpt lat="43.70632" lon="3.70624">
        <ele>175</ele>
        <time>2007-05-21T07:19:12Z</time>
      </trkpt>
      <trkpt lat="43.70632" lon="3.7058">
        <ele>175</ele>
        <time>2007-05-21T07:19:25Z</time>
      </trkpt>
      <trkpt lat="43.70548" lon="3.70444">
        <ele>161</ele>
        <time>2007-05-21T07:20:17Z</time>
      </trkpt>
      <trkpt lat="43.70521" lon="3.70396">
        <ele>156</ele>
        <time>2007-05-21T07:20:35Z</time>
      </trkpt>
      <trkpt lat="43.7058" lon="3.70384">
        <ele>158</ele>
        <time>2007-05-21T07:20:59Z</time>
      </trkpt>
      <trkpt lat="43.70651" lon="3.70385">
        <ele>161</ele>
        <time>2007-05-21T07:21:28Z</time>
      </trkpt>
      <trkpt lat="43.70709" lon="3.70372">
        <ele>161</ele>
        <time>2007-05-21T07:21:52Z</time>
      </trkpt>
      <trkpt lat="43.70746" lon="3.70368">
        <ele>163</ele>
        <time>2007-05-21T07:22:07Z</time>
      </trkpt>
      <trkpt lat="43.70773" lon="3.70356">
        <ele>163</ele>
        <time>2007-05-21T07:22:18Z</time>
      </trkpt>
      <trkpt lat="43.70798" lon="3.70323">
        <ele>163</ele>
        <time>2007-05-21T07:22:33Z</time>
      </trkpt>
      <trkpt lat="43.70821" lon="3.70267">
        <ele>172</ele>
        <time>2007-05-21T07:22:52Z</time>
      </trkpt>
      <trkpt lat="43.70829" lon="3.70236">
        <ele>172</ele>
        <time>2007-05-21T07:23:01Z</time>
      </trkpt>
      <trkpt lat="43.70831" lon="3.70196">
        <ele>172</ele>
        <time>2007-05-21T07:23:13Z</time>
      </trkpt>
      <trkpt lat="43.70842" lon="3.70157">
        <ele>172</ele>
        <time>2007-05-21T07:23:25Z</time>
      </trkpt>
      <trkpt lat="43.70838" lon="3.70084">
        <ele>174</ele>
        <time>2007-05-21T07:23:46Z</time>
      </trkpt>
      <trkpt lat="43.70821" lon="3.70044">
        <ele>177</ele>
        <time>2007-05-21T07:24:00Z</time>
      </trkpt>
      <trkpt lat="43.70783" lon="3.70027">
        <ele>175</ele>
        <time>2007-05-21T07:24:16Z</time>
      </trkpt>
      <trkpt lat="43.70752" lon="3.70033">
        <ele>175</ele>
        <time>2007-05-21T07:24:29Z</time>
      </trkpt>
      <trkpt lat="43.7071" lon="3.69974">
        <ele>175</ele>
        <time>2007-05-21T07:24:55Z</time>
      </trkpt>
      <trkpt lat="43.707" lon="3.6993">
        <ele>182</ele>
        <time>2007-05-21T07:25:09Z</time>
      </trkpt>
      <trkpt lat="43.7069" lon="3.69891">
        <ele>182</ele>
        <time>2007-05-21T07:25:21Z</time>
      </trkpt>
      <trkpt lat="43.7069" lon="3.69867">
        <ele>182</ele>
        <time>2007-05-21T07:25:28Z</time>
      </trkpt>
      <trkpt lat="43.70707" lon="3.69804">
        <ele>182</ele>
        <time>2007-05-21T07:25:48Z</time>
      </trkpt>
      <trkpt lat="43.70714" lon="3.69794">
        <ele>180</ele>
        <time>2007-05-21T07:25:52Z</time>
      </trkpt>
      <trkpt lat="43.70716" lon="3.69791">
        <ele>180</ele>
        <time>2007-05-21T07:25:55Z</time>
      </trkpt>
      <trkpt lat="43.7074" lon="3.69766">
        <ele>180</ele>
        <time>2007-05-21T07:26:07Z</time>
      </trkpt>
      <trkpt lat="43.70777" lon="3.69699">
        <ele>182</ele>
        <time>2007-05-21T07:26:32Z</time>
      </trkpt>
      <trkpt lat="43.70785" lon="3.69661">
        <ele>182</ele>
        <time>2007-05-21T07:26:43Z</time>
      </trkpt>
      <trkpt lat="43.70778" lon="3.69627">
        <ele>184</ele>
        <time>2007-05-21T07:26:54Z</time>
      </trkpt>
      <trkpt lat="43.70765" lon="3.69591">
        <ele>184</ele>
        <time>2007-05-21T07:27:05Z</time>
      </trkpt>
      <trkpt lat="43.70747" lon="3.69506">
        <ele>185</ele>
        <time>2007-05-21T07:27:31Z</time>
      </trkpt>
      <trkpt lat="43.70743" lon="3.69469">
        <ele>187</ele>
        <time>2007-05-21T07:27:42Z</time>
      </trkpt>
      <trkpt lat="43.70729" lon="3.69417">
        <ele>187</ele>
        <time>2007-05-21T07:27:59Z</time>
      </trkpt>
      <trkpt lat="43.70717" lon="3.69373">
        <ele>189</ele>
        <time>2007-05-21T07:28:12Z</time>
      </trkpt>
      <trkpt lat="43.70749" lon="3.69304">
        <ele>189</ele>
        <time>2007-05-21T07:28:36Z</time>
      </trkpt>
      <trkpt lat="43.70781" lon="3.69259">
        <ele>189</ele>
        <time>2007-05-21T07:28:54Z</time>
      </trkpt>
      <trkpt lat="43.70817" lon="3.69208">
        <ele>191</ele>
        <time>2007-05-21T07:29:15Z</time>
      </trkpt>
      <trkpt lat="43.70852" lon="3.69166">
        <ele>191</ele>
        <time>2007-05-21T07:29:34Z</time>
      </trkpt>
      <trkpt lat="43.70882" lon="3.69037">
        <ele>191</ele>
        <time>2007-05-21T07:30:14Z</time>
      </trkpt>
      <trkpt lat="43.70897" lon="3.68987">
        <ele>191</ele>
        <time>2007-05-21T07:30:30Z</time>
      </trkpt>
      <trkpt lat="43.70898" lon="3.68935">
        <ele>192</ele>
        <time>2007-05-21T07:30:45Z</time>
      </trkpt>
      <trkpt lat="43.70889" lon="3.68891">
        <ele>192</ele>
        <time>2007-05-21T07:30:58Z</time>
      </trkpt>
      <trkpt lat="43.70843" lon="3.68846">
        <ele>197</ele>
        <time>2007-05-21T07:31:21Z</time>
      </trkpt>
      <trkpt lat="43.70829" lon="3.68828">
        <ele>197</ele>
        <time>2007-05-21T07:31:29Z</time>
      </trkpt>
      <trkpt lat="43.70812" lon="3.68811">
        <ele>197</ele>
        <time>2007-05-21T07:31:37Z</time>
      </trkpt>
      <trkpt lat="43.708" lon="3.68827">
        <ele>197</ele>
        <time>2007-05-21T07:31:44Z</time>
      </trkpt>
      <trkpt lat="43.70781" lon="3.6886">
        <ele>201</ele>
        <time>2007-05-21T07:31:57Z</time>
      </trkpt>
      <trkpt lat="43.70772" lon="3.68863">
        <ele>201</ele>
        <time>2007-05-21T07:32:00Z</time>
      </trkpt>
      <trkpt lat="43.7074" lon="3.68861">
        <ele>201</ele>
        <time>2007-05-21T07:32:14Z</time>
      </trkpt>
      <trkpt lat="43.70715" lon="3.68856">
        <ele>201</ele>
        <time>2007-05-21T07:32:24Z</time>
      </trkpt>
      <trkpt lat="43.70693" lon="3.68872">
        <ele>203</ele>
        <time>2007-05-21T07:32:36Z</time>
      </trkpt>
      <trkpt lat="43.70704" lon="3.68912">
        <ele>202</ele>
        <time>2007-05-21T07:32:48Z</time>
      </trkpt>
      <trkpt lat="43.70696" lon="3.68959">
        <ele>204</ele>
        <time>2007-05-21T07:33:03Z</time>
      </trkpt>
      <trkpt lat="43.70678" lon="3.68996">
        <ele>206</ele>
        <time>2007-05-21T07:33:15Z</time>
      </trkpt>
      <trkpt lat="43.70638" lon="3.69047">
        <ele>202</ele>
        <time>2007-05-21T07:33:37Z</time>
      </trkpt>
      <trkpt lat="43.70634" lon="3.69053">
        <ele>202</ele>
        <time>2007-05-21T07:33:40Z</time>
      </trkpt>
      <trkpt lat="43.70634" lon="3.69053">
        <ele>202</ele>
        <time>2007-05-21T07:33:40Z</time>
      </trkpt>
      <trkpt lat="43.70634" lon="3.69053">
        <ele>202</ele>
        <time>2007-05-21T07:33:41Z</time>
      </trkpt>
      <trkpt lat="43.70638" lon="3.69051">
        <ele>202</ele>
        <time>2007-05-21T07:33:44Z</time>
      </trkpt>
      <trkpt lat="43.70638" lon="3.69053">
        <ele>202</ele>
        <time>2007-05-21T07:33:45Z</time>
      </trkpt>
      <trkpt lat="43.70634" lon="3.69053">
        <ele>202</ele>
        <time>2007-05-21T07:33:46Z</time>
      </trkpt>
      <trkpt lat="43.70633" lon="3.69049">
        <ele>202</ele>
        <time>2007-05-21T07:33:47Z</time>
      </trkpt>
      <trkpt lat="43.70633" lon="3.69049">
        <ele>202</ele>
        <time>2007-05-21T07:33:48Z</time>
      </trkpt>
      <trkpt lat="43.70633" lon="3.69049">
        <ele>202</ele>
        <time>2007-05-21T07:33:48Z</time>
      </trkpt>
      <trkpt lat="43.70633" lon="3.69049">
        <ele>202</ele>
        <time>2007-05-21T07:33:48Z</time>
      </trkpt>
      <trkpt lat="43.70626" lon="3.69061">
        <ele>203</ele>
        <time>2007-05-21T07:33:53Z</time>
      </trkpt>
      <trkpt lat="43.70577" lon="3.69111">
        <ele>203</ele>
        <time>2007-05-21T07:34:17Z</time>
      </trkpt>
      <trkpt lat="43.70548" lon="3.6914">
        <ele>203</ele>
        <time>2007-05-21T07:34:32Z</time>
      </trkpt>
      <trkpt lat="43.70529" lon="3.69149">
        <ele>204</ele>
        <time>2007-05-21T07:34:40Z</time>
      </trkpt>
      <trkpt lat="43.70515" lon="3.69142">
        <ele>204</ele>
        <time>2007-05-21T07:34:46Z</time>
      </trkpt>
      <trkpt lat="43.70447" lon="3.69142">
        <ele>206</ele>
        <time>2007-05-21T07:35:13Z</time>
      </trkpt>
      <trkpt lat="43.70423" lon="3.69144">
        <ele>206</ele>
        <time>2007-05-21T07:35:23Z</time>
      </trkpt>
      <trkpt lat="43.70402" lon="3.69152">
        <ele>206</ele>
        <time>2007-05-21T07:35:32Z</time>
      </trkpt>
      <trkpt lat="43.70373" lon="3.69165">
        <ele>200</ele>
        <time>2007-05-21T07:35:44Z</time>
      </trkpt>
      <trkpt lat="43.70304" lon="3.69179">
        <ele>200</ele>
        <time>2007-05-21T07:36:15Z</time>
      </trkpt>
      <trkpt lat="43.70282" lon="3.69219">
        <ele>200</ele>
        <time>2007-05-21T07:36:30Z</time>
      </trkpt>
      <trkpt lat="43.70266" lon="3.69262">
        <ele>200</ele>
        <time>2007-05-21T07:36:44Z</time>
      </trkpt>
      <trkpt lat="43.70248" lon="3.69319">
        <ele>203</ele>
        <time>2007-05-21T07:37:02Z</time>
      </trkpt>
      <trkpt lat="43.70222" lon="3.69454">
        <ele>206</ele>
        <time>2007-05-21T07:37:42Z</time>
      </trkpt>
      <trkpt lat="43.70223" lon="3.69519">
        <ele>207</ele>
        <time>2007-05-21T07:38:01Z</time>
      </trkpt>
      <trkpt lat="43.70215" lon="3.69599">
        <ele>204</ele>
        <time>2007-05-21T07:38:24Z</time>
      </trkpt>
      <trkpt lat="43.7021" lon="3.69625">
        <ele>204</ele>
        <time>2007-05-21T07:38:32Z</time>
      </trkpt>
      <trkpt lat="43.70186" lon="3.69688">
        <ele>202</ele>
        <time>2007-05-21T07:38:54Z</time>
      </trkpt>
      <trkpt lat="43.70149" lon="3.69748">
        <ele>199</ele>
        <time>2007-05-21T07:39:17Z</time>
      </trkpt>
      <trkpt lat="43.70111" lon="3.69803">
        <ele>199</ele>
        <time>2007-05-21T07:39:39Z</time>
      </trkpt>
      <trkpt lat="43.70079" lon="3.69855">
        <ele>199</ele>
        <time>2007-05-21T07:39:59Z</time>
      </trkpt>
      <trkpt lat="43.70028" lon="3.69886">
        <ele>195</ele>
        <time>2007-05-21T07:40:23Z</time>
      </trkpt>
      <trkpt lat="43.69999" lon="3.69872">
        <ele>199</ele>
        <time>2007-05-21T07:40:35Z</time>
      </trkpt>
      <trkpt lat="43.69971" lon="3.69862">
        <ele>199</ele>
        <time>2007-05-21T07:40:47Z</time>
      </trkpt>
      <trkpt lat="43.69929" lon="3.69833">
        <ele>191</ele>
        <time>2007-05-21T07:41:06Z</time>
      </trkpt>
      <trkpt lat="43.69872" lon="3.69752">
        <ele>183</ele>
        <time>2007-05-21T07:41:38Z</time>
      </trkpt>
      <trkpt lat="43.69829" lon="3.69712">
        <ele>182</ele>
        <time>2007-05-21T07:41:59Z</time>
      </trkpt>
      <trkpt lat="43.69778" lon="3.69683">
        <ele>177</ele>
        <time>2007-05-21T07:42:21Z</time>
      </trkpt>
      <trkpt lat="43.69761" lon="3.69651">
        <ele>177</ele>
        <time>2007-05-21T07:42:33Z</time>
      </trkpt>
      <trkpt lat="43.6977" lon="3.69766">
        <ele>174</ele>
        <time>2007-05-21T07:43:07Z</time>
      </trkpt>
      <trkpt lat="43.69772" lon="3.69804">
        <ele>174</ele>
        <time>2007-05-21T07:43:18Z</time>
      </trkpt>
      <trkpt lat="43.69779" lon="3.69866">
        <ele>174</ele>
        <time>2007-05-21T07:43:37Z</time>
      </trkpt>
      <trkpt lat="43.69783" lon="3.69905">
        <ele>172</ele>
        <time>2007-05-21T07:43:48Z</time>
      </trkpt>
      <trkpt lat="43.69779" lon="3.70036">
        <ele>172</ele>
        <time>2007-05-21T07:44:27Z</time>
      </trkpt>
      <trkpt lat="43.69763" lon="3.70092">
        <ele>175</ele>
        <time>2007-05-21T07:44:45Z</time>
      </trkpt>
      <trkpt lat="43.69737" lon="3.70136">
        <ele>179</ele>
        <time>2007-05-21T07:45:01Z</time>
      </trkpt>
      <trkpt lat="43.69707" lon="3.70169">
        <ele>179</ele>
        <time>2007-05-21T07:45:17Z</time>
      </trkpt>
      <trkpt lat="43.69633" lon="3.70217">
        <ele>186</ele>
        <time>2007-05-21T07:45:50Z</time>
      </trkpt>
      <trkpt lat="43.69596" lon="3.70236">
        <ele>191</ele>
        <time>2007-05-21T07:46:05Z</time>
      </trkpt>
      <trkpt lat="43.69563" lon="3.70258">
        <ele>191</ele>
        <time>2007-05-21T07:46:20Z</time>
      </trkpt>
      <trkpt lat="43.69546" lon="3.70287">
        <ele>191</ele>
        <time>2007-05-21T07:46:31Z</time>
      </trkpt>
      <trkpt lat="43.69498" lon="3.70345">
        <ele>203</ele>
        <time>2007-05-21T07:46:57Z</time>
      </trkpt>
      <trkpt lat="43.69477" lon="3.70367">
        <ele>203</ele>
        <time>2007-05-21T07:47:07Z</time>
      </trkpt>
      <trkpt lat="43.69462" lon="3.70378">
        <ele>214</ele>
        <time>2007-05-21T07:47:14Z</time>
      </trkpt>
      <trkpt lat="43.6946" lon="3.70377">
        <ele>214</ele>
        <time>2007-05-21T07:47:15Z</time>
      </trkpt>
      <trkpt lat="43.6943" lon="3.70414">
        <ele>212</ele>
        <time>2007-05-21T07:47:32Z</time>
      </trkpt>
      <trkpt lat="43.6941" lon="3.70431">
        <ele>212</ele>
        <time>2007-05-21T07:47:41Z</time>
      </trkpt>
      <trkpt lat="43.69393" lon="3.70442">
        <ele>212</ele>
        <time>2007-05-21T07:47:48Z</time>
      </trkpt>
      <trkpt lat="43.69369" lon="3.7045">
        <ele>215</ele>
        <time>2007-05-21T07:47:59Z</time>
      </trkpt>
      <trkpt lat="43.69319" lon="3.70425">
        <ele>215</ele>
        <time>2007-05-21T07:48:20Z</time>
      </trkpt>
      <trkpt lat="43.69293" lon="3.70398">
        <ele>219</ele>
        <time>2007-05-21T07:48:33Z</time>
      </trkpt>
      <trkpt lat="43.69264" lon="3.70392">
        <ele>219</ele>
        <time>2007-05-21T07:48:45Z</time>
      </trkpt>
      <trkpt lat="43.69226" lon="3.70393">
        <ele>219</ele>
        <time>2007-05-21T07:49:00Z</time>
      </trkpt>
      <trkpt lat="43.69154" lon="3.70374">
        <ele>223</ele>
        <time>2007-05-21T07:49:30Z</time>
      </trkpt>
      <trkpt lat="43.69118" lon="3.70374">
        <ele>224</ele>
        <time>2007-05-21T07:49:45Z</time>
      </trkpt>
      <trkpt lat="43.69103" lon="3.70398">
        <ele>222</ele>
        <time>2007-05-21T07:49:54Z</time>
      </trkpt>
      <trkpt lat="43.69082" lon="3.70453">
        <ele>222</ele>
        <time>2007-05-21T07:50:12Z</time>
      </trkpt>
      <trkpt lat="43.69037" lon="3.70556">
        <ele>231</ele>
        <time>2007-05-21T07:50:47Z</time>
      </trkpt>
      <trkpt lat="43.69009" lon="3.70603">
        <ele>231</ele>
        <time>2007-05-21T07:51:05Z</time>
      </trkpt>
      <trkpt lat="43.68993" lon="3.70638">
        <ele>231</ele>
        <time>2007-05-21T07:51:17Z</time>
      </trkpt>
      <trkpt lat="43.68979" lon="3.70682">
        <ele>231</ele>
        <time>2007-05-21T07:51:31Z</time>
      </trkpt>
      <trkpt lat="43.68974" lon="3.70766">
        <ele>235</ele>
        <time>2007-05-21T07:51:55Z</time>
      </trkpt>
      <trkpt lat="43.68983" lon="3.7081">
        <ele>240</ele>
        <time>2007-05-21T07:52:09Z</time>
      </trkpt>
      <trkpt lat="43.68997" lon="3.70845">
        <ele>240</ele>
        <time>2007-05-21T07:52:20Z</time>
      </trkpt>
      <trkpt lat="43.69014" lon="3.70864">
        <ele>240</ele>
        <time>2007-05-21T07:52:29Z</time>
      </trkpt>
      <trkpt lat="43.69072" lon="3.709">
        <ele>247</ele>
        <time>2007-05-21T07:52:55Z</time>
      </trkpt>
      <trkpt lat="43.691" lon="3.70905">
        <ele>262</ele>
        <time>2007-05-21T07:53:06Z</time>
      </trkpt>
      <trkpt lat="43.69124" lon="3.70922">
        <ele>247</ele>
        <time>2007-05-21T07:53:17Z</time>
      </trkpt>
      <trkpt lat="43.69145" lon="3.70931">
        <ele>253</ele>
        <time>2007-05-21T07:53:26Z</time>
      </trkpt>
      <trkpt lat="43.69193" lon="3.70945">
        <ele>253</ele>
        <time>2007-05-21T07:53:46Z</time>
      </trkpt>
      <trkpt lat="43.6921" lon="3.70956">
        <ele>262</ele>
        <time>2007-05-21T07:53:53Z</time>
      </trkpt>
      <trkpt lat="43.69232" lon="3.70965">
        <ele>263</ele>
        <time>2007-05-21T07:54:03Z</time>
      </trkpt>
      <trkpt lat="43.69255" lon="3.70984">
        <ele>263</ele>
        <time>2007-05-21T07:54:13Z</time>
      </trkpt>
      <trkpt lat="43.69232" lon="3.71007">
        <ele>263</ele>
        <time>2007-05-21T07:54:27Z</time>
      </trkpt>
      <trkpt lat="43.69213" lon="3.71028">
        <ele>263</ele>
        <time>2007-05-21T07:54:37Z</time>
      </trkpt>
      <trkpt lat="43.69193" lon="3.71046">
        <ele>267</ele>
        <time>2007-05-21T07:54:47Z</time>
      </trkpt>
      <trkpt lat="43.69175" lon="3.71062">
        <ele>267</ele>
        <time>2007-05-21T07:54:56Z</time>
      </trkpt>
      <trkpt lat="43.69146" lon="3.71091">
        <ele>267</ele>
        <time>2007-05-21T07:55:10Z</time>
      </trkpt>
      <trkpt lat="43.69129" lon="3.7111">
        <ele>267</ele>
        <time>2007-05-21T07:55:19Z</time>
      </trkpt>
      <trkpt lat="43.69121" lon="3.71123">
        <ele>270</ele>
        <time>2007-05-21T07:55:24Z</time>
      </trkpt>
      <trkpt lat="43.69103" lon="3.71136">
        <ele>281</ele>
        <time>2007-05-21T07:55:32Z</time>
      </trkpt>
      <trkpt lat="43.6907" lon="3.71159">
        <ele>281</ele>
        <time>2007-05-21T07:55:47Z</time>
      </trkpt>
      <trkpt lat="43.69057" lon="3.71169">
        <ele>281</ele>
        <time>2007-05-21T07:55:53Z</time>
      </trkpt>
      <trkpt lat="43.6904" lon="3.7117">
        <ele>282</ele>
        <time>2007-05-21T07:56:00Z</time>
      </trkpt>
      <trkpt lat="43.69037" lon="3.71168">
        <ele>282</ele>
        <time>2007-05-21T07:56:01Z</time>
      </trkpt>
      <trkpt lat="43.69027" lon="3.71189">
        <ele>282</ele>
        <time>2007-05-21T07:56:10Z</time>
      </trkpt>
      <trkpt lat="43.69018" lon="3.71194">
        <ele>282</ele>
        <time>2007-05-21T07:56:14Z</time>
      </trkpt>
      <trkpt lat="43.68999" lon="3.7121">
        <ele>291</ele>
        <time>2007-05-21T07:56:23Z</time>
      </trkpt>
      <trkpt lat="43.68985" lon="3.71219">
        <ele>291</ele>
        <time>2007-05-21T07:56:29Z</time>
      </trkpt>
      <trkpt lat="43.68933" lon="3.71215">
        <ele>291</ele>
        <time>2007-05-21T07:56:50Z</time>
      </trkpt>
      <trkpt lat="43.68903" lon="3.71221">
        <ele>291</ele>
        <time>2007-05-21T07:57:03Z</time>
      </trkpt>
      <trkpt lat="43.68882" lon="3.71224">
        <ele>291</ele>
        <time>2007-05-21T07:57:11Z</time>
      </trkpt>
      <trkpt lat="43.68857" lon="3.71228">
        <ele>288</ele>
        <time>2007-05-21T07:57:21Z</time>
      </trkpt>
      <trkpt lat="43.68788" lon="3.71188">
        <ele>285</ele>
        <time>2007-05-21T07:57:51Z</time>
      </trkpt>
      <trkpt lat="43.68774" lon="3.71174">
        <ele>285</ele>
        <time>2007-05-21T07:57:59Z</time>
      </trkpt>
      <trkpt lat="43.6875" lon="3.71124">
        <ele>282</ele>
        <time>2007-05-21T07:58:17Z</time>
      </trkpt>
      <trkpt lat="43.68714" lon="3.71106">
        <ele>282</ele>
        <time>2007-05-21T07:58:32Z</time>
      </trkpt>
      <trkpt lat="43.68638" lon="3.71062">
        <ele>281</ele>
        <time>2007-05-21T07:59:05Z</time>
      </trkpt>
      <trkpt lat="43.68602" lon="3.71056">
        <ele>281</ele>
        <time>2007-05-21T07:59:20Z</time>
      </trkpt>
      <trkpt lat="43.68592" lon="3.71045">
        <ele>281</ele>
        <time>2007-05-21T07:59:25Z</time>
      </trkpt>
      <trkpt lat="43.68573" lon="3.71025">
        <ele>277</ele>
        <time>2007-05-21T07:59:35Z</time>
      </trkpt>
      <trkpt lat="43.68479" lon="3.70984">
        <ele>279</ele>
        <time>2007-05-21T08:00:15Z</time>
      </trkpt>
      <trkpt lat="43.68462" lon="3.70984">
        <ele>278</ele>
        <time>2007-05-21T08:00:22Z</time>
      </trkpt>
      <trkpt lat="43.68445" lon="3.70982">
        <ele>278</ele>
        <time>2007-05-21T08:00:28Z</time>
      </trkpt>
      <trkpt lat="43.68408" lon="3.70987">
        <ele>278</ele>
        <time>2007-05-21T08:00:44Z</time>
      </trkpt>
      <trkpt lat="43.68324" lon="3.71055">
        <ele>280</ele>
        <time>2007-05-21T08:01:24Z</time>
      </trkpt>
      <trkpt lat="43.68297" lon="3.71117">
        <ele>278</ele>
        <time>2007-05-21T08:01:44Z</time>
      </trkpt>
      <trkpt lat="43.68284" lon="3.71177">
        <ele>275</ele>
        <time>2007-05-21T08:02:03Z</time>
      </trkpt>
      <trkpt lat="43.68305" lon="3.71244">
        <ele>277</ele>
        <time>2007-05-21T08:02:24Z</time>
      </trkpt>
      <trkpt lat="43.68338" lon="3.71319">
        <ele>274</ele>
        <time>2007-05-21T08:02:51Z</time>
      </trkpt>
      <trkpt lat="43.68351" lon="3.71361">
        <ele>274</ele>
        <time>2007-05-21T08:03:05Z</time>
      </trkpt>
      <trkpt lat="43.6836" lon="3.714">
        <ele>271</ele>
        <time>2007-05-21T08:03:17Z</time>
      </trkpt>
      <trkpt lat="43.68373" lon="3.71461">
        <ele>271</ele>
        <time>2007-05-21T08:03:36Z</time>
      </trkpt>
      <trkpt lat="43.68372" lon="3.71536">
        <ele>273</ele>
        <time>2007-05-21T08:03:58Z</time>
      </trkpt>
      <trkpt lat="43.68376" lon="3.71564">
        <ele>283</ele>
        <time>2007-05-21T08:04:07Z</time>
      </trkpt>
      <trkpt lat="43.68383" lon="3.716">
        <ele>285</ele>
        <time>2007-05-21T08:04:18Z</time>
      </trkpt>
      <trkpt lat="43.68382" lon="3.71633">
        <ele>285</ele>
        <time>2007-05-21T08:04:27Z</time>
      </trkpt>
      <trkpt lat="43.68368" lon="3.71694">
        <ele>289</ele>
        <time>2007-05-21T08:04:47Z</time>
      </trkpt>
      <trkpt lat="43.68367" lon="3.71725">
        <ele>286</ele>
        <time>2007-05-21T08:04:56Z</time>
      </trkpt>
      <trkpt lat="43.68365" lon="3.71754">
        <ele>286</ele>
        <time>2007-05-21T08:05:04Z</time>
      </trkpt>
      <trkpt lat="43.68375" lon="3.71769">
        <ele>286</ele>
        <time>2007-05-21T08:05:10Z</time>
      </trkpt>
      <trkpt lat="43.68364" lon="3.718">
        <ele>275</ele>
        <time>2007-05-21T08:05:20Z</time>
      </trkpt>
      <trkpt lat="43.68365" lon="3.7182">
        <ele>275</ele>
        <time>2007-05-21T08:05:27Z</time>
      </trkpt>
      <trkpt lat="43.68354" lon="3.71822">
        <ele>275</ele>
        <time>2007-05-21T08:05:31Z</time>
      </trkpt>
      <trkpt lat="43.68357" lon="3.71835">
        <ele>275</ele>
        <time>2007-05-21T08:05:36Z</time>
      </trkpt>
      <trkpt lat="43.68366" lon="3.71842">
        <ele>275</ele>
        <time>2007-05-21T08:05:41Z</time>
      </trkpt>
      <trkpt lat="43.68371" lon="3.71844">
        <ele>275</ele>
        <time>2007-05-21T08:05:42Z</time>
      </trkpt>
      <trkpt lat="43.68377" lon="3.71846">
        <ele>275</ele>
        <time>2007-05-21T08:05:45Z</time>
      </trkpt>
      <trkpt lat="43.6838" lon="3.71852">
        <ele>275</ele>
        <time>2007-05-21T08:05:48Z</time>
      </trkpt>
      <trkpt lat="43.68369" lon="3.71866">
        <ele>275</ele>
        <time>2007-05-21T08:05:55Z</time>
      </trkpt>
      <trkpt lat="43.68374" lon="3.71869">
        <ele>275</ele>
        <time>2007-05-21T08:05:57Z</time>
      </trkpt>
      <trkpt lat="43.68382" lon="3.71872">
        <ele>271</ele>
        <time>2007-05-21T08:06:00Z</time>
      </trkpt>
      <trkpt lat="43.68401" lon="3.71877">
        <ele>271</ele>
        <time>2007-05-21T08:06:08Z</time>
      </trkpt>
      <trkpt lat="43.68384" lon="3.71916">
        <ele>250</ele>
        <time>2007-05-21T08:06:22Z</time>
      </trkpt>
      <trkpt lat="43.68372" lon="3.71929">
        <ele>255</ele>
        <time>2007-05-21T08:06:28Z</time>
      </trkpt>
      <trkpt lat="43.68358" lon="3.7194">
        <ele>255</ele>
        <time>2007-05-21T08:06:34Z</time>
      </trkpt>
      <trkpt lat="43.68353" lon="3.71952">
        <ele>255</ele>
        <time>2007-05-21T08:06:39Z</time>
      </trkpt>
      <trkpt lat="43.68408" lon="3.71967">
        <ele>226</ele>
        <time>2007-05-21T08:07:02Z</time>
      </trkpt>
      <trkpt lat="43.6844" lon="3.71969">
        <ele>226</ele>
        <time>2007-05-21T08:07:15Z</time>
      </trkpt>
      <trkpt lat="43.68453" lon="3.71971">
        <ele>226</ele>
        <time>2007-05-21T08:07:20Z</time>
      </trkpt>
      <trkpt lat="43.68454" lon="3.71985">
        <ele>226</ele>
        <time>2007-05-21T08:07:25Z</time>
      </trkpt>
      <trkpt lat="43.68427" lon="3.72004">
        <ele>226</ele>
        <time>2007-05-21T08:07:37Z</time>
      </trkpt>
      <trkpt lat="43.68411" lon="3.72007">
        <ele>226</ele>
        <time>2007-05-21T08:07:43Z</time>
      </trkpt>
      <trkpt lat="43.68397" lon="3.72011">
        <ele>226</ele>
        <time>2007-05-21T08:07:49Z</time>
      </trkpt>
      <trkpt lat="43.68389" lon="3.72012">
        <ele>226</ele>
        <time>2007-05-21T08:07:52Z</time>
      </trkpt>
      <trkpt lat="43.68353" lon="3.72021">
        <ele>230</ele>
        <time>2007-05-21T08:08:07Z</time>
      </trkpt>
      <trkpt lat="43.68342" lon="3.72022">
        <ele>221</ele>
        <time>2007-05-21T08:08:11Z</time>
      </trkpt>
      <trkpt lat="43.68332" lon="3.72024">
        <ele>230</ele>
        <time>2007-05-21T08:08:16Z</time>
      </trkpt>
      <trkpt lat="43.68313" lon="3.72027">
        <ele>230</ele>
        <time>2007-05-21T08:08:24Z</time>
      </trkpt>
      <trkpt lat="43.68273" lon="3.72021">
        <ele>221</ele>
        <time>2007-05-21T08:08:40Z</time>
      </trkpt>
      <trkpt lat="43.68246" lon="3.72016">
        <ele>221</ele>
        <time>2007-05-21T08:08:51Z</time>
      </trkpt>
      <trkpt lat="43.68224" lon="3.72008">
        <ele>221</ele>
        <time>2007-05-21T08:09:00Z</time>
      </trkpt>
      <trkpt lat="43.68193" lon="3.71998">
        <ele>202</ele>
        <time>2007-05-21T08:09:13Z</time>
      </trkpt>
      <trkpt lat="43.68167" lon="3.71986">
        <ele>202</ele>
        <time>2007-05-21T08:09:24Z</time>
      </trkpt>
      <trkpt lat="43.68147" lon="3.71983">
        <ele>202</ele>
        <time>2007-05-21T08:09:32Z</time>
      </trkpt>
      <trkpt lat="43.68128" lon="3.71981">
        <ele>202</ele>
        <time>2007-05-21T08:09:39Z</time>
      </trkpt>
      <trkpt lat="43.68104" lon="3.71977">
        <ele>189</ele>
        <time>2007-05-21T08:09:49Z</time>
      </trkpt>
      <trkpt lat="43.68061" lon="3.71974">
        <ele>189</ele>
        <time>2007-05-21T08:10:06Z</time>
      </trkpt>
      <trkpt lat="43.68049" lon="3.71978">
        <ele>189</ele>
        <time>2007-05-21T08:10:13Z</time>
      </trkpt>
      <trkpt lat="43.68067" lon="3.71981">
        <ele>189</ele>
        <time>2007-05-21T08:10:20Z</time>
      </trkpt>
      <trkpt lat="43.68086" lon="3.71994">
        <ele>189</ele>
        <time>2007-05-21T08:10:29Z</time>
      </trkpt>
      <trkpt lat="43.68086" lon="3.71998">
        <ele>189</ele>
        <time>2007-05-21T08:10:31Z</time>
      </trkpt>
      <trkpt lat="43.68086" lon="3.71996">
        <ele>189</ele>
        <time>2007-05-21T08:10:32Z</time>
      </trkpt>
      <trkpt lat="43.68086" lon="3.71996">
        <ele>189</ele>
        <time>2007-05-21T08:10:32Z</time>
      </trkpt>
      <trkpt lat="43.68086" lon="3.71995">
        <ele>189</ele>
        <time>2007-05-21T08:10:33Z</time>
      </trkpt>
      <trkpt lat="43.68089" lon="3.71997">
        <ele>189</ele>
        <time>2007-05-21T08:10:35Z</time>
      </trkpt>
      <trkpt lat="43.68086" lon="3.71994">
        <ele>189</ele>
        <time>2007-05-21T08:10:37Z</time>
      </trkpt>
      <trkpt lat="43.68087" lon="3.71994">
        <ele>189</ele>
        <time>2007-05-21T08:10:38Z</time>
      </trkpt>
      <trkpt lat="43.68086" lon="3.71994">
        <ele>189</ele>
        <time>2007-05-21T08:10:39Z</time>
      </trkpt>
      <trkpt lat="43.68085" lon="3.71996">
        <ele>189</ele>
        <time>2007-05-21T08:10:40Z</time>
      </trkpt>
      <trkpt lat="43.68085" lon="3.71996">
        <ele>189</ele>
        <time>2007-05-21T08:10:40Z</time>
      </trkpt>
      <trkpt lat="43.68085" lon="3.71997">
        <ele>189</ele>
        <time>2007-05-21T08:10:41Z</time>
      </trkpt>
      <trkpt lat="43.68085" lon="3.71996">
        <ele>189</ele>
        <time>2007-05-21T08:10:42Z</time>
      </trkpt>
      <trkpt lat="43.68086" lon="3.71996">
        <ele>189</ele>
        <time>2007-05-21T08:10:43Z</time>
      </trkpt>
      <trkpt lat="43.68086" lon="3.71996">
        <ele>189</ele>
        <time>2007-05-21T08:10:44Z</time>
      </trkpt>
      <trkpt lat="43.68099" lon="3.72008">
        <ele>189</ele>
        <time>2007-05-21T08:10:50Z</time>
      </trkpt>
      <trkpt lat="43.68123" lon="3.72023">
        <ele>189</ele>
        <time>2007-05-21T08:11:01Z</time>
      </trkpt>
      <trkpt lat="43.68155" lon="3.72062">
        <ele>175</ele>
        <time>2007-05-21T08:11:18Z</time>
      </trkpt>
      <trkpt lat="43.68176" lon="3.72095">
        <ele>175</ele>
        <time>2007-05-21T08:11:31Z</time>
      </trkpt>
      <trkpt lat="43.682" lon="3.72107">
        <ele>175</ele>
        <time>2007-05-21T08:11:42Z</time>
      </trkpt>
      <trkpt lat="43.6823" lon="3.72133">
        <ele>161</ele>
        <time>2007-05-21T08:11:56Z</time>
      </trkpt>
      <trkpt lat="43.68369" lon="3.72166">
        <ele>165</ele>
        <time>2007-05-21T08:12:53Z</time>
      </trkpt>
      <trkpt lat="43.68427" lon="3.72176">
        <ele>174</ele>
        <time>2007-05-21T08:13:16Z</time>
      </trkpt>
      <trkpt lat="43.6846" lon="3.72184">
        <ele>174</ele>
        <time>2007-05-21T08:13:30Z</time>
      </trkpt>
      <trkpt lat="43.68451" lon="3.72199">
        <ele>174</ele>
        <time>2007-05-21T08:13:35Z</time>
      </trkpt>
      <trkpt lat="43.68385" lon="3.72217">
        <ele>170</ele>
        <time>2007-05-21T08:14:03Z</time>
      </trkpt>
      <trkpt lat="43.68345" lon="3.72236">
        <ele>156</ele>
        <time>2007-05-21T08:14:20Z</time>
      </trkpt>
      <trkpt lat="43.68306" lon="3.72257">
        <ele>156</ele>
        <time>2007-05-21T08:14:37Z</time>
      </trkpt>
      <trkpt lat="43.68271" lon="3.72281">
        <ele>146</ele>
        <time>2007-05-21T08:14:52Z</time>
      </trkpt>
      <trkpt lat="43.68224" lon="3.72356">
        <ele>147</ele>
        <time>2007-05-21T08:15:22Z</time>
      </trkpt>
      <trkpt lat="43.68215" lon="3.72367">
        <ele>147</ele>
        <time>2007-05-21T08:15:27Z</time>
      </trkpt>
      <trkpt lat="43.68198" lon="3.72414">
        <ele>142</ele>
        <time>2007-05-21T08:15:42Z</time>
      </trkpt>
      <trkpt lat="43.68182" lon="3.72456">
        <ele>142</ele>
        <time>2007-05-21T08:15:56Z</time>
      </trkpt>
      <trkpt lat="43.6813" lon="3.72538">
        <ele>130</ele>
        <time>2007-05-21T08:16:28Z</time>
      </trkpt>
      <trkpt lat="43.68103" lon="3.72581">
        <ele>128</ele>
        <time>2007-05-21T08:16:44Z</time>
      </trkpt>
      <trkpt lat="43.68085" lon="3.72614">
        <ele>128</ele>
        <time>2007-05-21T08:16:56Z</time>
      </trkpt>
      <trkpt lat="43.6802" lon="3.72641">
        <ele>123</ele>
        <time>2007-05-21T08:17:24Z</time>
      </trkpt>
      <trkpt lat="43.67985" lon="3.72694">
        <ele>123</ele>
        <time>2007-05-21T08:17:48Z</time>
      </trkpt>
      <trkpt lat="43.67963" lon="3.72746">
        <ele>117</ele>
        <time>2007-05-21T08:18:06Z</time>
      </trkpt>
      <trkpt lat="43.67929" lon="3.72794">
        <ele>112</ele>
        <time>2007-05-21T08:18:26Z</time>
      </trkpt>
      <trkpt lat="43.67924" lon="3.72825">
        <ele>108</ele>
        <time>2007-05-21T08:18:35Z</time>
      </trkpt>
      <trkpt lat="43.67914" lon="3.72906">
        <ele>107</ele>
        <time>2007-05-21T08:19:03Z</time>
      </trkpt>
      <trkpt lat="43.67867" lon="3.72909">
        <ele>110</ele>
        <time>2007-05-21T08:19:22Z</time>
      </trkpt>
      <trkpt lat="43.67811" lon="3.72901">
        <ele>110</ele>
        <time>2007-05-21T08:19:44Z</time>
      </trkpt>
      <trkpt lat="43.67749" lon="3.72897">
        <ele>107</ele>
        <time>2007-05-21T08:20:09Z</time>
      </trkpt>
      <trkpt lat="43.67637" lon="3.72834">
        <ele>102</ele>
        <time>2007-05-21T08:20:58Z</time>
      </trkpt>
      <trkpt lat="43.67576" lon="3.72819">
        <ele>105</ele>
        <time>2007-05-21T08:21:22Z</time>
      </trkpt>
      <trkpt lat="43.67521" lon="3.72819">
        <ele>103</ele>
        <time>2007-05-21T08:21:45Z</time>
      </trkpt>
      <trkpt lat="43.67428" lon="3.72816">
        <ele>104</ele>
        <time>2007-05-21T08:22:22Z</time>
      </trkpt>
      <trkpt lat="43.67309" lon="3.72824">
        <ele>102</ele>
        <time>2007-05-21T08:23:10Z</time>
      </trkpt>
      <trkpt lat="43.67299" lon="3.72832">
        <ele>102</ele>
        <time>2007-05-21T08:23:15Z</time>
      </trkpt>
      <trkpt lat="43.67275" lon="3.72862">
        <ele>98</ele>
        <time>2007-05-21T08:23:28Z</time>
      </trkpt>
      <trkpt lat="43.67255" lon="3.7289">
        <ele>105</ele>
        <time>2007-05-21T08:23:39Z</time>
      </trkpt>
      <trkpt lat="43.67244" lon="3.7292">
        <ele>105</ele>
        <time>2007-05-21T08:23:50Z</time>
      </trkpt>
      <trkpt lat="43.67246" lon="3.72923">
        <ele>105</ele>
        <time>2007-05-21T08:23:51Z</time>
      </trkpt>
      <trkpt lat="43.67274" lon="3.72924">
        <ele>105</ele>
        <time>2007-05-21T08:24:02Z</time>
      </trkpt>
      <trkpt lat="43.67292" lon="3.72923">
        <ele>105</ele>
        <time>2007-05-21T08:24:09Z</time>
      </trkpt>
      <trkpt lat="43.67347" lon="3.72955">
        <ele>116</ele>
        <time>2007-05-21T08:24:33Z</time>
      </trkpt>
      <trkpt lat="43.67381" lon="3.72979">
        <ele>120</ele>
        <time>2007-05-21T08:24:49Z</time>
      </trkpt>
      <trkpt lat="43.67434" lon="3.73002">
        <ele>120</ele>
        <time>2007-05-21T08:25:11Z</time>
      </trkpt>
      <trkpt lat="43.67491" lon="3.73032">
        <ele>129</ele>
        <time>2007-05-21T08:25:36Z</time>
      </trkpt>
      <trkpt lat="43.67505" lon="3.73094">
        <ele>130</ele>
        <time>2007-05-21T08:25:58Z</time>
      </trkpt>
      <trkpt lat="43.67503" lon="3.73123">
        <ele>130</ele>
        <time>2007-05-21T08:26:06Z</time>
      </trkpt>
      <trkpt lat="43.67498" lon="3.73159">
        <ele>134</ele>
        <time>2007-05-21T08:26:17Z</time>
      </trkpt>
      <trkpt lat="43.67495" lon="3.73195">
        <ele>134</ele>
        <time>2007-05-21T08:26:28Z</time>
      </trkpt>
      <trkpt lat="43.6752" lon="3.73236">
        <ele>133</ele>
        <time>2007-05-21T08:26:46Z</time>
      </trkpt>
      <trkpt lat="43.67565" lon="3.73258">
        <ele>140</ele>
        <time>2007-05-21T08:27:05Z</time>
      </trkpt>
      <trkpt lat="43.676" lon="3.73292">
        <ele>146</ele>
        <time>2007-05-21T08:27:22Z</time>
      </trkpt>
      <trkpt lat="43.67616" lon="3.7333">
        <ele>129</ele>
        <time>2007-05-21T08:27:35Z</time>
      </trkpt>
      <trkpt lat="43.67652" lon="3.73495">
        <ele>140</ele>
        <time>2007-05-21T08:28:26Z</time>
      </trkpt>
      <trkpt lat="43.67675" lon="3.73549">
        <ele>140</ele>
        <time>2007-05-21T08:28:44Z</time>
      </trkpt>
      <trkpt lat="43.67731" lon="3.73602">
        <ele>139</ele>
        <time>2007-05-21T08:29:11Z</time>
      </trkpt>
      <trkpt lat="43.67782" lon="3.73638">
        <ele>123</ele>
        <time>2007-05-21T08:29:34Z</time>
      </trkpt>
      <trkpt lat="43.67875" lon="3.73759">
        <ele>117</ele>
        <time>2007-05-21T08:30:26Z</time>
      </trkpt>
      <trkpt lat="43.6789" lon="3.73791">
        <ele>121</ele>
        <time>2007-05-21T08:30:37Z</time>
      </trkpt>
      <trkpt lat="43.67902" lon="3.73824">
        <ele>123</ele>
        <time>2007-05-21T08:30:47Z</time>
      </trkpt>
      <trkpt lat="43.67913" lon="3.73867">
        <ele>123</ele>
        <time>2007-05-21T08:31:00Z</time>
      </trkpt>
      <trkpt lat="43.67919" lon="3.73861">
        <ele>123</ele>
        <time>2007-05-21T08:31:04Z</time>
      </trkpt>
      <trkpt lat="43.67925" lon="3.73846">
        <ele>123</ele>
        <time>2007-05-21T08:31:09Z</time>
      </trkpt>
      <trkpt lat="43.67954" lon="3.73826">
        <ele>123</ele>
        <time>2007-05-21T08:31:21Z</time>
      </trkpt>
      <trkpt lat="43.67985" lon="3.73818">
        <ele>125</ele>
        <time>2007-05-21T08:31:34Z</time>
      </trkpt>
      <trkpt lat="43.68054" lon="3.73801">
        <ele>126</ele>
        <time>2007-05-21T08:32:02Z</time>
      </trkpt>
      <trkpt lat="43.68086" lon="3.7381">
        <ele>126</ele>
        <time>2007-05-21T08:32:15Z</time>
      </trkpt>
      <trkpt lat="43.68111" lon="3.73824">
        <ele>126</ele>
        <time>2007-05-21T08:32:27Z</time>
      </trkpt>
      <trkpt lat="43.6813" lon="3.73823">
        <ele>128</ele>
        <time>2007-05-21T08:32:35Z</time>
      </trkpt>
      <trkpt lat="43.68177" lon="3.73858">
        <ele>128</ele>
        <time>2007-05-21T08:32:56Z</time>
      </trkpt>
      <trkpt lat="43.68197" lon="3.73883">
        <ele>130</ele>
        <time>2007-05-21T08:33:08Z</time>
      </trkpt>
      <trkpt lat="43.68218" lon="3.73907">
        <ele>128</ele>
        <time>2007-05-21T08:33:18Z</time>
      </trkpt>
      <trkpt lat="43.68244" lon="3.73931">
        <ele>128</ele>
        <time>2007-05-21T08:33:31Z</time>
      </trkpt>
      <trkpt lat="43.68259" lon="3.73937">
        <ele>128</ele>
        <time>2007-05-21T08:33:37Z</time>
      </trkpt>
      <trkpt lat="43.68279" lon="3.73939">
        <ele>128</ele>
        <time>2007-05-21T08:33:45Z</time>
      </trkpt>
      <trkpt lat="43.68288" lon="3.73934">
        <ele>128</ele>
        <time>2007-05-21T08:33:49Z</time>
      </trkpt>
      <trkpt lat="43.68309" lon="3.73925">
        <ele>129</ele>
        <time>2007-05-21T08:33:58Z</time>
      </trkpt>
      <trkpt lat="43.68335" lon="3.73963">
        <ele>128</ele>
        <time>2007-05-21T08:34:14Z</time>
      </trkpt>
      <trkpt lat="43.68355" lon="3.74001">
        <ele>128</ele>
        <time>2007-05-21T08:34:28Z</time>
      </trkpt>
      <trkpt lat="43.68378" lon="3.74038">
        <ele>128</ele>
        <time>2007-05-21T08:34:42Z</time>
      </trkpt>
      <trkpt lat="43.68382" lon="3.74083">
        <ele>130</ele>
        <time>2007-05-21T08:34:57Z</time>
      </trkpt>
      <trkpt lat="43.68373" lon="3.74161">
        <ele>130</ele>
        <time>2007-05-21T08:35:20Z</time>
      </trkpt>
      <trkpt lat="43.68384" lon="3.74199">
        <ele>131</ele>
        <time>2007-05-21T08:35:32Z</time>
      </trkpt>
      <trkpt lat="43.68415" lon="3.74208">
        <ele>131</ele>
        <time>2007-05-21T08:35:45Z</time>
      </trkpt>
      <trkpt lat="43.68455" lon="3.74189">
        <ele>131</ele>
        <time>2007-05-21T08:36:02Z</time>
      </trkpt>
      <trkpt lat="43.68506" lon="3.74224">
        <ele>134</ele>
        <time>2007-05-21T08:36:26Z</time>
      </trkpt>
      <trkpt lat="43.68527" lon="3.74243">
        <ele>134</ele>
        <time>2007-05-21T08:36:36Z</time>
      </trkpt>
      <trkpt lat="43.68555" lon="3.74265">
        <ele>138</ele>
        <time>2007-05-21T08:36:49Z</time>
      </trkpt>
      <trkpt lat="43.68585" lon="3.74286">
        <ele>138</ele>
        <time>2007-05-21T08:37:02Z</time>
      </trkpt>
      <trkpt lat="43.6866" lon="3.7435">
        <ele>143</ele>
        <time>2007-05-21T08:37:38Z</time>
      </trkpt>
      <trkpt lat="43.68696" lon="3.74377">
        <ele>143</ele>
        <time>2007-05-21T08:37:54Z</time>
      </trkpt>
      <trkpt lat="43.68718" lon="3.7439">
        <ele>156</ele>
        <time>2007-05-21T08:38:03Z</time>
      </trkpt>
      <trkpt lat="43.68739" lon="3.74398">
        <ele>156</ele>
        <time>2007-05-21T08:38:12Z</time>
      </trkpt>
      <trkpt lat="43.68776" lon="3.74422">
        <ele>156</ele>
        <time>2007-05-21T08:38:30Z</time>
      </trkpt>
      <trkpt lat="43.68789" lon="3.74442">
        <ele>156</ele>
        <time>2007-05-21T08:38:38Z</time>
      </trkpt>
      <trkpt lat="43.68807" lon="3.74451">
        <ele>168</ele>
        <time>2007-05-21T08:38:45Z</time>
      </trkpt>
      <trkpt lat="43.68814" lon="3.74476">
        <ele>178</ele>
        <time>2007-05-21T08:38:53Z</time>
      </trkpt>
      <trkpt lat="43.68835" lon="3.74501">
        <ele>178</ele>
        <time>2007-05-21T08:39:05Z</time>
      </trkpt>
      <trkpt lat="43.68842" lon="3.74507">
        <ele>178</ele>
        <time>2007-05-21T08:39:08Z</time>
      </trkpt>
      <trkpt lat="43.68861" lon="3.74509">
        <ele>178</ele>
        <time>2007-05-21T08:39:16Z</time>
      </trkpt>
      <trkpt lat="43.68869" lon="3.74517">
        <ele>178</ele>
        <time>2007-05-21T08:39:20Z</time>
      </trkpt>
      <trkpt lat="43.68888" lon="3.74605">
        <ele>190</ele>
        <time>2007-05-21T08:39:46Z</time>
      </trkpt>
      <trkpt lat="43.6891" lon="3.74613">
        <ele>190</ele>
        <time>2007-05-21T08:39:55Z</time>
      </trkpt>
      <trkpt lat="43.68917" lon="3.74591">
        <ele>190</ele>
        <time>2007-05-21T08:40:03Z</time>
      </trkpt>
      <trkpt lat="43.68917" lon="3.74573">
        <ele>190</ele>
        <time>2007-05-21T08:40:08Z</time>
      </trkpt>
      <trkpt lat="43.68909" lon="3.74537">
        <ele>194</ele>
        <time>2007-05-21T08:40:27Z</time>
      </trkpt>
      <trkpt lat="43.68914" lon="3.74532">
        <ele>194</ele>
        <time>2007-05-21T08:40:31Z</time>
      </trkpt>
      <trkpt lat="43.68923" lon="3.74531">
        <ele>194</ele>
        <time>2007-05-21T08:40:35Z</time>
      </trkpt>
      <trkpt lat="43.68927" lon="3.74532">
        <ele>194</ele>
        <time>2007-05-21T08:40:37Z</time>
      </trkpt>
      <trkpt lat="43.68965" lon="3.74576">
        <ele>187</ele>
        <time>2007-05-21T08:40:58Z</time>
      </trkpt>
    </trkseg>
  </trk>
</gpx>